SWR11EM KMCO-EDDP
Flight info
| Callsign | SWR11EM |
|---|---|
| Flight time | N/A |
| Altitude | 41000 |
| Route | JEEMY4 PAINN DCT SHRKS DCT BERTT DCT GURGE DCT RAYVO/N0493F350 Q87 NOWAE DCT FAK DCT BOOYA Q34 RBV Q22 LLUND DCT BIZEX Q133 CAM DCT BEEHS DCT JIGZY DCT HULTN N611A SAXAN/M085F370 DCT 5250N DCT 5340N DCT 5330N DCT 5320N DCT MALOT/N0487F370 DCT GISTI/N0481F390 DCT ENJEX DCT ADHAV DCT AXNEF DCT ZIPWE DCT OZZIL DCT SAWPE L179 ICTAM M197 REDFA DCT TACHA DCT NORTA/N0461F230 DCT ADMOS T959 KOJEC KOJEC1V |
| Aircraft | A359/H-SDE2E3GHIJ3J4J5LM1ORWXY/LB1D1 |
Departure
| Time | 2026-04-25 12:40 |
|---|---|
| Airport | Orlando International Airport (KMCO) |
Arrival
| Time | N/A |
|---|---|
| Airport | Leipzig/Halle Airport (EDDP) |
| Time | Latitude | Longitude | Altitude | Speed | Heading |
|---|---|---|---|---|---|
| 2026-04-25 11:24 | 28.43641 | -81.30148 | 107 ft | 0 kts | 177° |
| 2026-04-25 12:16 | 28.43643 | -81.30148 | 107 ft | 2 kts | 177° |
| 2026-04-25 12:17 | 28.43661 | -81.30157 | 105 ft | 3 kts | 135° |
| 2026-04-25 12:17 | 28.43676 | -81.30174 | 106 ft | 4 kts | 136° |
| 2026-04-25 12:17 | 28.43696 | -81.30195 | 104 ft | 4 kts | 136° |
| 2026-04-25 12:17 | 28.43711 | -81.30211 | 105 ft | 4 kts | 136° |
| 2026-04-25 12:18 | 28.43728 | -81.30230 | 105 ft | 4 kts | 117° |
| 2026-04-25 12:18 | 28.43728 | -81.30253 | 103 ft | 4 kts | 52° |
| 2026-04-25 12:18 | 28.43722 | -81.30262 | 103 ft | 4 kts | 51° |
| 2026-04-25 12:18 | 28.43732 | -81.30249 | 103 ft | 0 kts | 52° |
| 2026-04-25 12:22 | 28.43731 | -81.30249 | 103 ft | 2 kts | 52° |
| 2026-04-25 12:22 | 28.43726 | -81.30256 | 103 ft | 1 kts | 52° |
| 2026-04-25 12:22 | 28.43755 | -81.30213 | 107 ft | 10 kts | 53° |
| 2026-04-25 12:23 | 28.43799 | -81.30149 | 103 ft | 10 kts | 53° |
| 2026-04-25 12:23 | 28.43825 | -81.30079 | 105 ft | 10 kts | 84° |
| 2026-04-25 12:23 | 28.43822 | -81.30020 | 108 ft | 0 kts | 97° |
| 2026-04-25 12:24 | 28.43831 | -81.29971 | 105 ft | 11 kts | 72° |
| 2026-04-25 12:24 | 28.43841 | -81.29900 | 106 ft | 9 kts | 107° |
| 2026-04-25 12:25 | 28.43787 | -81.29839 | 107 ft | 12 kts | 149° |
| 2026-04-25 12:25 | 28.43711 | -81.29810 | 108 ft | 11 kts | 171° |
| 2026-04-25 12:25 | 28.43629 | -81.29807 | 109 ft | 13 kts | 179° |
| 2026-04-25 12:25 | 28.43536 | -81.29806 | 106 ft | 14 kts | 179° |
| 2026-04-25 12:26 | 28.43451 | -81.29776 | 110 ft | 12 kts | 126° |
| 2026-04-25 12:26 | 28.43410 | -81.29720 | 108 ft | 8 kts | 154° |
| 2026-04-25 12:26 | 28.43353 | -81.29710 | 110 ft | 10 kts | 178° |
| 2026-04-25 12:26 | 28.43286 | -81.29709 | 111 ft | 11 kts | 180° |
| 2026-04-25 12:27 | 28.43171 | -81.29709 | 109 ft | 20 kts | 180° |
| 2026-04-25 12:27 | 28.43031 | -81.29708 | 108 ft | 22 kts | 180° |
| 2026-04-25 12:27 | 28.42870 | -81.29706 | 107 ft | 23 kts | 179° |
| 2026-04-25 12:27 | 28.42704 | -81.29705 | 106 ft | 23 kts | 179° |
| 2026-04-25 12:28 | 28.42616 | -81.29727 | 107 ft | 11 kts | 227° |
| 2026-04-25 12:28 | 28.42571 | -81.29786 | 108 ft | 9 kts | 207° |
| 2026-04-25 12:28 | 28.42500 | -81.29795 | 106 ft | 13 kts | 179° |
| 2026-04-25 12:28 | 28.42407 | -81.29794 | 108 ft | 14 kts | 179° |
| 2026-04-25 12:29 | 28.42313 | -81.29800 | 106 ft | 13 kts | 205° |
| 2026-04-25 12:29 | 28.42281 | -81.29885 | 110 ft | 13 kts | 267° |
| 2026-04-25 12:29 | 28.42280 | -81.29999 | 110 ft | 18 kts | 270° |
| 2026-04-25 12:29 | 28.42280 | -81.30170 | 108 ft | 24 kts | 269° |
| 2026-04-25 12:30 | 28.42276 | -81.30366 | 107 ft | 25 kts | 266° |
| 2026-04-25 12:30 | 28.42264 | -81.30553 | 110 ft | 23 kts | 266° |
| 2026-04-25 12:30 | 28.42253 | -81.30728 | 109 ft | 22 kts | 266° |
| 2026-04-25 12:30 | 28.42241 | -81.30906 | 108 ft | 23 kts | 266° |
| 2026-04-25 12:31 | 28.42243 | -81.31083 | 106 ft | 20 kts | 279° |
| 2026-04-25 12:31 | 28.42258 | -81.31184 | 105 ft | 5 kts | 279° |
| 2026-04-25 12:31 | 28.42258 | -81.31185 | 104 ft | 0 kts | 279° |
| 2026-04-25 12:31 | 28.42260 | -81.31199 | 105 ft | 9 kts | 279° |
| 2026-04-25 12:32 | 28.42271 | -81.31334 | 104 ft | 20 kts | 273° |
| 2026-04-25 12:32 | 28.42269 | -81.31482 | 107 ft | 18 kts | 267° |
| 2026-04-25 12:32 | 28.42266 | -81.31624 | 109 ft | 18 kts | 270° |
| 2026-04-25 12:32 | 28.42266 | -81.31756 | 111 ft | 16 kts | 270° |
| 2026-04-25 12:33 | 28.42265 | -81.31868 | 115 ft | 13 kts | 269° |
| 2026-04-25 12:33 | 28.42291 | -81.31972 | 112 ft | 16 kts | 326° |
| 2026-04-25 12:33 | 28.42407 | -81.31987 | 112 ft | 18 kts | 359° |
| 2026-04-25 12:33 | 28.42541 | -81.31988 | 112 ft | 20 kts | 360° |
| 2026-04-25 12:34 | 28.42683 | -81.31988 | 111 ft | 22 kts | 359° |
| 2026-04-25 12:34 | 28.42845 | -81.31990 | 108 ft | 25 kts | 359° |
| 2026-04-25 12:34 | 28.43029 | -81.31992 | 107 ft | 27 kts | 359° |
| 2026-04-25 12:34 | 28.43156 | -81.31993 | 106 ft | 28 kts | 359° |
| 2026-04-25 12:35 | 28.43420 | -81.31997 | 107 ft | 27 kts | 360° |
| 2026-04-25 12:35 | 28.43603 | -81.31999 | 109 ft | 25 kts | 359° |
| 2026-04-25 12:35 | 28.43772 | -81.32000 | 110 ft | 23 kts | 359° |
| 2026-04-25 12:35 | 28.43928 | -81.32002 | 112 ft | 22 kts | 359° |
| 2026-04-25 12:36 | 28.44076 | -81.32003 | 114 ft | 21 kts | 359° |
| 2026-04-25 12:36 | 28.44227 | -81.32006 | 112 ft | 22 kts | 359° |
| 2026-04-25 12:36 | 28.44380 | -81.32008 | 111 ft | 22 kts | 359° |
| 2026-04-25 12:36 | 28.44538 | -81.32009 | 108 ft | 20 kts | 0° |
| 2026-04-25 12:37 | 28.44650 | -81.32011 | 107 ft | 13 kts | 355° |
| 2026-04-25 12:37 | 28.44707 | -81.32076 | 106 ft | 11 kts | 294° |
| 2026-04-25 12:37 | 28.44714 | -81.32131 | 106 ft | 7 kts | 272° |
| 2026-04-25 12:37 | 28.44679 | -81.32219 | 107 ft | 10 kts | 207° |
| 2026-04-25 12:38 | 28.44642 | -81.32226 | 108 ft | 0 kts | 182° |
| 2026-04-25 12:38 | 28.44623 | -81.32226 | 108 ft | 13 kts | 182° |
| 2026-04-25 12:39 | 28.44339 | -81.32229 | 111 ft | 70 kts | 179° |
| 2026-04-25 12:39 | 28.43659 | -81.32219 | 110 ft | 124 kts | 179° |
| 2026-04-25 12:39 | 28.42632 | -81.32211 | 111 ft | 169 kts | 180° |
| 2026-04-25 12:39 | 28.41402 | -81.32206 | 552 ft | 174 kts | 180° |
| 2026-04-25 12:40 | 28.40225 | -81.32218 | 1280 ft | 165 kts | 181° |
| 2026-04-25 12:40 | 28.39103 | -81.32221 | 1918 ft | 158 kts | 181° |
| 2026-04-25 12:40 | 28.38033 | -81.32451 | 2350 ft | 159 kts | 205° |
| 2026-04-25 12:40 | 28.37168 | -81.33232 | 2635 ft | 166 kts | 231° |
| 2026-04-25 12:41 | 28.36426 | -81.34307 | 2867 ft | 182 kts | 227° |
| 2026-04-25 12:41 | 28.35404 | -81.35242 | 3149 ft | 194 kts | 213° |
| 2026-04-25 12:41 | 28.34346 | -81.36255 | 3498 ft | 206 kts | 229° |
| 2026-04-25 12:41 | 28.33493 | -81.37650 | 3749 ft | 226 kts | 248° |
| 2026-04-25 12:42 | 28.33092 | -81.39426 | 4006 ft | 239 kts | 261° |
| 2026-04-25 12:42 | 28.33007 | -81.40062 | 4089 ft | 244 kts | 262° |
| 2026-04-25 12:42 | 28.32642 | -81.43373 | 4547 ft | 263 kts | 263° |
| 2026-04-25 12:42 | 28.32418 | -81.45449 | 5013 ft | 267 kts | 263° |
| 2026-04-25 12:43 | 28.32196 | -81.47555 | 5499 ft | 271 kts | 264° |
| 2026-04-25 12:43 | 28.32360 | -81.49646 | 5973 ft | 273 kts | 289° |
| 2026-04-25 12:43 | 28.34774 | -81.52894 | 6876 ft | 275 kts | 322° |
| 2026-04-25 12:44 | 28.36294 | -81.54210 | 6986 ft | 275 kts | 323° |
| 2026-04-25 12:44 | 28.37835 | -81.55513 | 6998 ft | 276 kts | 323° |
| 2026-04-25 12:44 | 28.41396 | -81.56985 | 7346 ft | 278 kts | 352° |
| 2026-04-25 12:45 | 28.43326 | -81.57239 | 7952 ft | 279 kts | 353° |
| 2026-04-25 12:45 | 28.45259 | -81.57465 | 8568 ft | 280 kts | 353° |
| 2026-04-25 12:45 | 28.49125 | -81.57884 | 9791 ft | 282 kts | 353° |
| 2026-04-25 12:46 | 28.51095 | -81.58055 | 10245 ft | 289 kts | 357° |
| 2026-04-25 12:46 | 28.53144 | -81.57794 | 10476 ft | 305 kts | 12° |
| 2026-04-25 12:46 | 28.55227 | -81.57102 | 10727 ft | 319 kts | 16° |
| 2026-04-25 12:46 | 28.57374 | -81.56285 | 10971 ft | 332 kts | 17° |
| 2026-04-25 12:47 | 28.59603 | -81.55415 | 11205 ft | 345 kts | 17° |
| 2026-04-25 12:47 | 28.61907 | -81.54508 | 11447 ft | 357 kts | 17° |
| 2026-04-25 12:47 | 28.64291 | -81.53568 | 11670 ft | 368 kts | 17° |
| 2026-04-25 12:47 | 28.66746 | -81.52600 | 11898 ft | 379 kts | 17° |
| 2026-04-25 12:48 | 28.69228 | -81.51619 | 12181 ft | 386 kts | 17° |
| 2026-04-25 12:48 | 28.71814 | -81.50600 | 12595 ft | 390 kts | 16° |
| 2026-04-25 12:48 | 28.74357 | -81.49621 | 13029 ft | 392 kts | 15° |
| 2026-04-25 12:48 | 28.76950 | -81.48619 | 13442 ft | 395 kts | 15° |
| 2026-04-25 12:49 | 28.79557 | -81.47600 | 13854 ft | 397 kts | 16° |
| 2026-04-25 12:49 | 28.82177 | -81.46570 | 14204 ft | 400 kts | 16° |
| 2026-04-25 12:49 | 28.84814 | -81.45513 | 14565 ft | 403 kts | 17° |
| 2026-04-25 12:49 | 28.87461 | -81.44435 | 14921 ft | 405 kts | 17° |
| 2026-04-25 12:50 | 28.90129 | -81.43357 | 15278 ft | 408 kts | 17° |
| 2026-04-25 12:50 | 28.92812 | -81.42286 | 15632 ft | 410 kts | 16° |
| 2026-04-25 12:50 | 28.95589 | -81.41551 | 15901 ft | 409 kts | 3° |
| 2026-04-25 12:50 | 28.98420 | -81.41587 | 15989 ft | 406 kts | 353° |
| 2026-04-25 12:51 | 29.01234 | -81.41894 | 16040 ft | 408 kts | 352° |
| 2026-04-25 12:51 | 29.04031 | -81.42225 | 16391 ft | 410 kts | 352° |
| 2026-04-25 12:51 | 29.06873 | -81.42555 | 16782 ft | 412 kts | 352° |
| 2026-04-25 12:51 | 29.09732 | -81.42881 | 17135 ft | 414 kts | 352° |
| 2026-04-25 12:52 | 29.12609 | -81.43187 | 17489 ft | 417 kts | 353° |
| 2026-04-25 12:52 | 29.15509 | -81.43459 | 17848 ft | 419 kts | 353° |
| 2026-04-25 12:52 | 29.18426 | -81.43729 | 18203 ft | 422 kts | 353° |
| 2026-04-25 12:52 | 29.21365 | -81.44003 | 18524 ft | 424 kts | 353° |
| 2026-04-25 12:53 | 29.24311 | -81.44280 | 18854 ft | 426 kts | 353° |
| 2026-04-25 12:53 | 29.27269 | -81.44560 | 19221 ft | 428 kts | 353° |
| 2026-04-25 12:53 | 29.30202 | -81.44838 | 19558 ft | 429 kts | 353° |
| 2026-04-25 12:53 | 29.33187 | -81.45122 | 19909 ft | 431 kts | 353° |
| 2026-04-25 12:54 | 29.36186 | -81.45407 | 20259 ft | 433 kts | 353° |
| 2026-04-25 12:54 | 29.39197 | -81.45694 | 20610 ft | 435 kts | 353° |
| 2026-04-25 12:54 | 29.42224 | -81.45983 | 20954 ft | 437 kts | 353° |
| 2026-04-25 12:54 | 29.45267 | -81.46273 | 21302 ft | 439 kts | 353° |
| 2026-04-25 12:55 | 29.48316 | -81.46565 | 21652 ft | 442 kts | 353° |
| 2026-04-25 12:55 | 29.50347 | -81.46759 | 21887 ft | 443 kts | 353° |
| 2026-04-25 12:55 | 29.54471 | -81.47153 | 22358 ft | 446 kts | 353° |
| 2026-04-25 12:55 | 29.57531 | -81.47447 | 22662 ft | 449 kts | 353° |
| 2026-04-25 12:56 | 29.60657 | -81.47741 | 22965 ft | 452 kts | 354° |
| 2026-04-25 12:56 | 29.63798 | -81.48023 | 23323 ft | 454 kts | 354° |
| 2026-04-25 12:56 | 29.66959 | -81.48306 | 23650 ft | 456 kts | 354° |
| 2026-04-25 12:56 | 29.70133 | -81.48592 | 23964 ft | 458 kts | 354° |
| 2026-04-25 12:57 | 29.73315 | -81.48879 | 24298 ft | 460 kts | 354° |
| 2026-04-25 12:57 | 29.76511 | -81.49169 | 24628 ft | 461 kts | 354° |
| 2026-04-25 12:57 | 29.79717 | -81.49460 | 24945 ft | 463 kts | 354° |
| 2026-04-25 12:57 | 29.82894 | -81.49748 | 25273 ft | 465 kts | 354° |
| 2026-04-25 12:58 | 29.86123 | -81.50043 | 25567 ft | 467 kts | 354° |
| 2026-04-25 12:58 | 29.89372 | -81.50339 | 25850 ft | 470 kts | 354° |
| 2026-04-25 12:58 | 29.92633 | -81.50638 | 26179 ft | 471 kts | 354° |
| 2026-04-25 12:58 | 29.95903 | -81.50943 | 26504 ft | 472 kts | 354° |
| 2026-04-25 12:59 | 29.99189 | -81.51255 | 26813 ft | 474 kts | 354° |
| 2026-04-25 12:59 | 30.02478 | -81.51572 | 27113 ft | 476 kts | 354° |
| 2026-04-25 12:59 | 30.05782 | -81.51896 | 27403 ft | 477 kts | 354° |
| 2026-04-25 12:59 | 30.09094 | -81.52225 | 27675 ft | 479 kts | 354° |
| 2026-04-25 13:00 | 30.12420 | -81.52560 | 27968 ft | 480 kts | 354° |
| 2026-04-25 13:00 | 30.13500 | -81.52670 | 28043 ft | 481 kts | 355° |
| 2026-04-25 13:00 | 30.19052 | -81.53255 | 28487 ft | 483 kts | 354° |
| 2026-04-25 13:00 | 30.22404 | -81.53615 | 28737 ft | 485 kts | 354° |
| 2026-04-25 13:01 | 30.25763 | -81.53979 | 29056 ft | 484 kts | 354° |
| 2026-04-25 13:01 | 30.29113 | -81.54346 | 29452 ft | 483 kts | 354° |
| 2026-04-25 13:01 | 30.32447 | -81.54716 | 29843 ft | 481 kts | 354° |
| 2026-04-25 13:01 | 30.35776 | -81.55089 | 30180 ft | 480 kts | 354° |
| 2026-04-25 13:02 | 30.39092 | -81.55464 | 30467 ft | 479 kts | 354° |
| 2026-04-25 13:02 | 30.42411 | -81.55838 | 30725 ft | 479 kts | 354° |
| 2026-04-25 13:02 | 30.45727 | -81.56211 | 30978 ft | 478 kts | 354° |
| 2026-04-25 13:02 | 30.49039 | -81.56583 | 31230 ft | 478 kts | 354° |
| 2026-04-25 13:03 | 30.52303 | -81.56948 | 31481 ft | 477 kts | 354° |
| 2026-04-25 13:03 | 30.55607 | -81.57318 | 31735 ft | 477 kts | 354° |
| 2026-04-25 13:03 | 30.58910 | -81.57686 | 31971 ft | 476 kts | 354° |
| 2026-04-25 13:03 | 30.62206 | -81.58053 | 32203 ft | 476 kts | 354° |
| 2026-04-25 13:04 | 30.65504 | -81.58419 | 32434 ft | 476 kts | 354° |
| 2026-04-25 13:04 | 30.68794 | -81.58784 | 32653 ft | 475 kts | 354° |
| 2026-04-25 13:04 | 30.72087 | -81.59152 | 32899 ft | 474 kts | 354° |
| 2026-04-25 13:04 | 30.75366 | -81.59519 | 33120 ft | 473 kts | 354° |
| 2026-04-25 13:05 | 30.78640 | -81.59904 | 33308 ft | 473 kts | 353° |
| 2026-04-25 13:05 | 30.81910 | -81.60368 | 33503 ft | 473 kts | 352° |
| 2026-04-25 13:05 | 30.85085 | -81.61064 | 33960 ft | 465 kts | 348° |
| 2026-04-25 13:05 | 30.88196 | -81.61857 | 34644 ft | 452 kts | 347° |
| 2026-04-25 13:06 | 30.91230 | -81.62675 | 35076 ft | 445 kts | 347° |
| 2026-04-25 13:06 | 30.94229 | -81.63509 | 35294 ft | 442 kts | 346° |
| 2026-04-25 13:06 | 30.97214 | -81.64350 | 35426 ft | 442 kts | 346° |
| 2026-04-25 13:06 | 31.00203 | -81.65194 | 35571 ft | 441 kts | 346° |
| 2026-04-25 13:07 | 31.03181 | -81.66034 | 35683 ft | 441 kts | 346° |
| 2026-04-25 13:07 | 31.06167 | -81.66873 | 35708 ft | 442 kts | 346° |
| 2026-04-25 13:07 | 31.12155 | -81.68500 | 35928 ft | 441 kts | 350° |
| 2026-04-25 13:08 | 31.18229 | -81.68778 | 36098 ft | 442 kts | 5° |
| 2026-04-25 13:08 | 31.24230 | -81.67180 | 36251 ft | 443 kts | 15° |
| 2026-04-25 13:09 | 31.30133 | -81.65036 | 36358 ft | 445 kts | 16° |
| 2026-04-25 13:09 | 31.33069 | -81.63932 | 36520 ft | 442 kts | 15° |
| 2026-04-25 13:09 | 31.35994 | -81.62835 | 36644 ft | 441 kts | 15° |
| 2026-04-25 13:10 | 31.41847 | -81.60663 | 36761 ft | 441 kts | 15° |
| 2026-04-25 13:10 | 31.47669 | -81.58525 | 36879 ft | 441 kts | 15° |
| 2026-04-25 13:11 | 31.53517 | -81.56380 | 36993 ft | 441 kts | 15° |
| 2026-04-25 13:11 | 31.59378 | -81.54228 | 37062 ft | 441 kts | 15° |
| 2026-04-25 13:12 | 31.65230 | -81.52075 | 37156 ft | 441 kts | 15° |
| 2026-04-25 13:12 | 31.69103 | -81.50648 | 37213 ft | 441 kts | 15° |
| 2026-04-25 13:13 | 31.76887 | -81.47777 | 37322 ft | 440 kts | 15° |
| 2026-04-25 13:13 | 31.82734 | -81.45618 | 37366 ft | 441 kts | 15° |
| 2026-04-25 13:14 | 31.88589 | -81.43452 | 37436 ft | 441 kts | 15° |
| 2026-04-25 13:14 | 31.94439 | -81.41284 | 37511 ft | 440 kts | 15° |
| 2026-04-25 13:15 | 32.00247 | -81.39130 | 37571 ft | 440 kts | 15° |
| 2026-04-25 13:15 | 32.06027 | -81.36983 | 37627 ft | 440 kts | 15° |
| 2026-04-25 13:16 | 32.11887 | -81.34804 | 37618 ft | 442 kts | 15° |
| 2026-04-25 13:16 | 32.16757 | -81.32990 | 37691 ft | 441 kts | 15° |
| 2026-04-25 13:17 | 32.22609 | -81.30808 | 37744 ft | 441 kts | 15° |
| 2026-04-25 13:17 | 32.29410 | -81.28269 | 37801 ft | 441 kts | 15° |
| 2026-04-25 13:18 | 32.34261 | -81.26453 | 37914 ft | 439 kts | 15° |
| 2026-04-25 13:18 | 32.40090 | -81.24272 | 37918 ft | 439 kts | 15° |
| 2026-04-25 13:19 | 32.45894 | -81.21982 | 37925 ft | 442 kts | 20° |
| 2026-04-25 13:19 | 32.50389 | -81.19068 | 37908 ft | 447 kts | 33° |
| 2026-04-25 13:20 | 32.56138 | -81.13773 | 37931 ft | 449 kts | 36° |
| 2026-04-25 13:20 | 32.60956 | -81.09049 | 37905 ft | 450 kts | 37° |
| 2026-04-25 13:21 | 32.65765 | -81.04319 | 37875 ft | 448 kts | 36° |
| 2026-04-25 13:21 | 32.70548 | -80.99642 | 37876 ft | 448 kts | 36° |
| 2026-04-25 13:22 | 32.75365 | -80.94945 | 37898 ft | 449 kts | 36° |
| 2026-04-25 13:23 | 32.82603 | -80.87877 | 37983 ft | 448 kts | 36° |
| 2026-04-25 13:23 | 32.87426 | -80.83158 | 37960 ft | 450 kts | 36° |
| 2026-04-25 13:24 | 32.92264 | -80.78416 | 37948 ft | 451 kts | 37° |
| 2026-04-25 13:24 | 32.97076 | -80.73691 | 37957 ft | 452 kts | 37° |
| 2026-04-25 13:25 | 33.01924 | -80.68925 | 37953 ft | 452 kts | 37° |
| 2026-04-25 13:25 | 33.06781 | -80.64142 | 37937 ft | 453 kts | 37° |
| 2026-04-25 13:26 | 33.11644 | -80.59347 | 37936 ft | 454 kts | 37° |
| 2026-04-25 13:26 | 33.16513 | -80.54538 | 37935 ft | 455 kts | 37° |
| 2026-04-25 13:27 | 33.21361 | -80.49744 | 37937 ft | 456 kts | 37° |
| 2026-04-25 13:27 | 33.26252 | -80.44902 | 37922 ft | 457 kts | 37° |
| 2026-04-25 13:28 | 33.31149 | -80.40045 | 37934 ft | 458 kts | 37° |
| 2026-04-25 13:28 | 33.36061 | -80.35165 | 37931 ft | 459 kts | 37° |
| 2026-04-25 13:29 | 33.40945 | -80.30306 | 37926 ft | 460 kts | 37° |
| 2026-04-25 13:29 | 33.45831 | -80.25435 | 37633 ft | 449 kts | 37° |
| 2026-04-25 13:30 | 33.50691 | -80.20586 | 36957 ft | 461 kts | 38° |
| 2026-04-25 13:30 | 33.53162 | -80.18119 | 36932 ft | 463 kts | 38° |
| 2026-04-25 13:31 | 33.60614 | -80.10661 | 36937 ft | 467 kts | 38° |
| 2026-04-25 13:31 | 33.65859 | -80.06051 | 36934 ft | 467 kts | 27° |
| 2026-04-25 13:32 | 33.71603 | -80.02367 | 36932 ft | 469 kts | 25° |
| 2026-04-25 13:32 | 33.77405 | -79.98846 | 36921 ft | 472 kts | 25° |
| 2026-04-25 13:33 | 33.83292 | -79.95293 | 36925 ft | 475 kts | 25° |
| 2026-04-25 13:33 | 33.89211 | -79.91698 | 36923 ft | 478 kts | 25° |
| 2026-04-25 13:34 | 33.95163 | -79.88061 | 36920 ft | 481 kts | 25° |
| 2026-04-25 13:34 | 34.01100 | -79.84427 | 36926 ft | 482 kts | 25° |
| 2026-04-25 13:35 | 34.07076 | -79.80761 | 36924 ft | 482 kts | 25° |
| 2026-04-25 13:35 | 34.13058 | -79.77086 | 36926 ft | 483 kts | 25° |
| 2026-04-25 13:36 | 34.19044 | -79.73409 | 36925 ft | 483 kts | 25° |
| 2026-04-25 13:36 | 34.25029 | -79.69724 | 36927 ft | 483 kts | 25° |
| 2026-04-25 13:37 | 34.31009 | -79.66031 | 36923 ft | 483 kts | 25° |
| 2026-04-25 13:37 | 34.37006 | -79.62325 | 36920 ft | 485 kts | 25° |
| 2026-04-25 13:38 | 34.42979 | -79.58643 | 36916 ft | 485 kts | 25° |
| 2026-04-25 13:38 | 34.48983 | -79.54914 | 36914 ft | 485 kts | 25° |
| 2026-04-25 13:39 | 34.54993 | -79.51175 | 36922 ft | 485 kts | 25° |
| 2026-04-25 13:39 | 34.60956 | -79.47306 | 36919 ft | 487 kts | 27° |
| 2026-04-25 13:40 | 34.66861 | -79.43264 | 36921 ft | 488 kts | 27° |
| 2026-04-25 13:40 | 34.72772 | -79.39229 | 36924 ft | 487 kts | 27° |
| 2026-04-25 13:41 | 34.78642 | -79.35242 | 36930 ft | 486 kts | 26° |
| 2026-04-25 13:41 | 34.84555 | -79.31230 | 36926 ft | 487 kts | 26° |
| 2026-04-25 13:42 | 34.90487 | -79.27203 | 36921 ft | 488 kts | 26° |
| 2026-04-25 13:42 | 34.96415 | -79.23173 | 36914 ft | 488 kts | 26° |
| 2026-04-25 13:43 | 35.02299 | -79.19165 | 36909 ft | 488 kts | 26° |
| 2026-04-25 13:43 | 35.08234 | -79.15116 | 36901 ft | 489 kts | 26° |
| 2026-04-25 13:44 | 35.14177 | -79.11055 | 36897 ft | 490 kts | 26° |
| 2026-04-25 13:44 | 35.20125 | -79.06983 | 36906 ft | 490 kts | 26° |
| 2026-04-25 13:45 | 35.26021 | -79.02939 | 36918 ft | 489 kts | 26° |
| 2026-04-25 13:45 | 35.31959 | -78.98861 | 36901 ft | 490 kts | 26° |
| 2026-04-25 13:46 | 35.37908 | -78.94768 | 36900 ft | 490 kts | 26° |
| 2026-04-25 13:46 | 35.43853 | -78.90673 | 36901 ft | 490 kts | 26° |
| 2026-04-25 13:47 | 35.49798 | -78.86574 | 36907 ft | 490 kts | 26° |
| 2026-04-25 13:47 | 35.55740 | -78.82460 | 36905 ft | 490 kts | 26° |
| 2026-04-25 13:48 | 35.61640 | -78.78372 | 36902 ft | 490 kts | 26° |
| 2026-04-25 13:48 | 35.67576 | -78.74258 | 36903 ft | 490 kts | 26° |
| 2026-04-25 13:49 | 35.73518 | -78.70122 | 36893 ft | 491 kts | 26° |
| 2026-04-25 13:49 | 35.79466 | -78.65976 | 36889 ft | 491 kts | 26° |
| 2026-04-25 13:50 | 35.85368 | -78.61859 | 36888 ft | 491 kts | 26° |
| 2026-04-25 13:50 | 35.91309 | -78.57707 | 36901 ft | 490 kts | 26° |
| 2026-04-25 13:51 | 35.97242 | -78.53553 | 36907 ft | 491 kts | 26° |
| 2026-04-25 13:51 | 36.03184 | -78.49387 | 36909 ft | 492 kts | 26° |
| 2026-04-25 13:51 | 36.06125 | -78.47318 | 36905 ft | 480 kts | 26° |
| 2026-04-25 13:52 | 36.08999 | -78.45294 | 36908 ft | 472 kts | 26° |
| 2026-04-25 13:52 | 36.14687 | -78.41291 | 36909 ft | 469 kts | 26° |
| 2026-04-25 13:53 | 36.20327 | -78.37321 | 36906 ft | 470 kts | 25° |
| 2026-04-25 13:53 | 36.26011 | -78.33311 | 36890 ft | 471 kts | 26° |
| 2026-04-25 13:54 | 36.31705 | -78.29284 | 36886 ft | 471 kts | 26° |
| 2026-04-25 13:54 | 36.37397 | -78.25375 | 36855 ft | 456 kts | 16° |
| 2026-04-25 13:55 | 36.43322 | -78.22897 | 36876 ft | 450 kts | 12° |
| 2026-04-25 13:55 | 36.49303 | -78.20738 | 36884 ft | 451 kts | 11° |
| 2026-04-25 13:56 | 36.55367 | -78.18598 | 36878 ft | 455 kts | 11° |
| 2026-04-25 13:56 | 36.61465 | -78.16414 | 36929 ft | 458 kts | 12° |
| 2026-04-25 13:57 | 36.67604 | -78.14186 | 36942 ft | 460 kts | 11° |
| 2026-04-25 13:57 | 36.73770 | -78.11940 | 36939 ft | 461 kts | 11° |
| 2026-04-25 13:58 | 36.79809 | -78.09732 | 36936 ft | 455 kts | 11° |
| 2026-04-25 13:58 | 36.85915 | -78.07507 | 36918 ft | 459 kts | 11° |
| 2026-04-25 13:59 | 36.92072 | -78.05260 | 36885 ft | 463 kts | 11° |
| 2026-04-25 13:59 | 36.98260 | -78.02994 | 36889 ft | 464 kts | 11° |
| 2026-04-25 14:00 | 37.03431 | -78.01098 | 36883 ft | 467 kts | 11° |
| 2026-04-25 14:00 | 37.10705 | -77.98424 | 36907 ft | 471 kts | 11° |
| 2026-04-25 14:01 | 37.17017 | -77.96100 | 36889 ft | 475 kts | 11° |
| 2026-04-25 14:01 | 37.23376 | -77.93756 | 36887 ft | 478 kts | 11° |
| 2026-04-25 14:02 | 37.29778 | -77.91392 | 36877 ft | 481 kts | 11° |
| 2026-04-25 14:02 | 37.36217 | -77.89008 | 36877 ft | 484 kts | 11° |
| 2026-04-25 14:03 | 37.42698 | -77.86605 | 36881 ft | 487 kts | 11° |
| 2026-04-25 14:03 | 37.49170 | -77.84202 | 36889 ft | 490 kts | 11° |
| 2026-04-25 14:04 | 37.55648 | -77.81346 | 36893 ft | 496 kts | 16° |
| 2026-04-25 14:04 | 37.62041 | -77.78048 | 36917 ft | 497 kts | 17° |
| 2026-04-25 14:05 | 37.68427 | -77.74677 | 36917 ft | 498 kts | 17° |
| 2026-04-25 14:05 | 37.74812 | -77.71299 | 36930 ft | 498 kts | 17° |
| 2026-04-25 14:06 | 37.81160 | -77.67944 | 36929 ft | 498 kts | 17° |
| 2026-04-25 14:06 | 37.87546 | -77.64570 | 36923 ft | 498 kts | 17° |
| 2026-04-25 14:07 | 37.93938 | -77.61186 | 36925 ft | 498 kts | 17° |
| 2026-04-25 14:07 | 38.00324 | -77.57797 | 36951 ft | 497 kts | 17° |
| 2026-04-25 14:08 | 38.06690 | -77.54413 | 36930 ft | 496 kts | 17° |
| 2026-04-25 14:08 | 38.13008 | -77.51049 | 36937 ft | 496 kts | 17° |
| 2026-04-25 14:09 | 38.19373 | -77.47654 | 36942 ft | 496 kts | 17° |
| 2026-04-25 14:09 | 38.25730 | -77.44255 | 36946 ft | 496 kts | 17° |
| 2026-04-25 14:10 | 38.32093 | -77.40847 | 36943 ft | 496 kts | 17° |
| 2026-04-25 14:10 | 38.38391 | -77.37191 | 36944 ft | 503 kts | 25° |
| 2026-04-25 14:11 | 38.43878 | -77.31519 | 36982 ft | 515 kts | 41° |
| 2026-04-25 14:11 | 38.48733 | -77.24757 | 36957 ft | 518 kts | 44° |
| 2026-04-25 14:12 | 38.53434 | -77.17874 | 36961 ft | 517 kts | 44° |
| 2026-04-25 14:12 | 38.58162 | -77.10953 | 36950 ft | 516 kts | 44° |
| 2026-04-25 14:13 | 38.62905 | -77.04055 | 36968 ft | 516 kts | 43° |
| 2026-04-25 14:13 | 38.67651 | -76.97164 | 36934 ft | 516 kts | 43° |
| 2026-04-25 14:14 | 38.72395 | -76.90262 | 36957 ft | 516 kts | 43° |
| 2026-04-25 14:14 | 38.77101 | -76.83399 | 36971 ft | 516 kts | 43° |
| 2026-04-25 14:15 | 38.81821 | -76.76506 | 36970 ft | 514 kts | 43° |
| 2026-04-25 14:15 | 38.86527 | -76.69604 | 36968 ft | 514 kts | 43° |
| 2026-04-25 14:16 | 38.91232 | -76.62690 | 36989 ft | 514 kts | 43° |
| 2026-04-25 14:16 | 38.95929 | -76.55777 | 36990 ft | 514 kts | 43° |
| 2026-04-25 14:17 | 39.00601 | -76.48886 | 36979 ft | 514 kts | 43° |
| 2026-04-25 14:17 | 39.05282 | -76.41962 | 36977 ft | 512 kts | 43° |
| 2026-04-25 14:18 | 39.09957 | -76.35038 | 36997 ft | 512 kts | 43° |
| 2026-04-25 14:18 | 39.14620 | -76.28115 | 37001 ft | 512 kts | 43° |
| 2026-04-25 14:19 | 39.19283 | -76.21178 | 37001 ft | 512 kts | 43° |
| 2026-04-25 14:19 | 39.23945 | -76.14225 | 37007 ft | 512 kts | 43° |
| 2026-04-25 14:20 | 39.28562 | -76.07330 | 37000 ft | 510 kts | 43° |
| 2026-04-25 14:20 | 39.33186 | -76.00408 | 36996 ft | 509 kts | 43° |
| 2026-04-25 14:21 | 39.37812 | -75.93459 | 36999 ft | 510 kts | 43° |
| 2026-04-25 14:21 | 39.42427 | -75.86512 | 37010 ft | 509 kts | 43° |
| 2026-04-25 14:22 | 39.47006 | -75.79605 | 37025 ft | 509 kts | 43° |
| 2026-04-25 14:22 | 39.51607 | -75.72652 | 37031 ft | 508 kts | 43° |
| 2026-04-25 14:23 | 39.56203 | -75.65691 | 37041 ft | 508 kts | 43° |
| 2026-04-25 14:23 | 39.60786 | -75.58735 | 37051 ft | 507 kts | 43° |
| 2026-04-25 14:24 | 39.65365 | -75.51772 | 37045 ft | 508 kts | 43° |
| 2026-04-25 14:24 | 39.69769 | -75.44558 | 37043 ft | 512 kts | 48° |
| 2026-04-25 14:25 | 39.73853 | -75.37053 | 37061 ft | 512 kts | 49° |
| 2026-04-25 14:25 | 39.77960 | -75.29513 | 37048 ft | 510 kts | 48° |
| 2026-04-25 14:26 | 39.82104 | -75.22043 | 37071 ft | 510 kts | 48° |
| 2026-04-25 14:26 | 39.86276 | -75.14575 | 37048 ft | 510 kts | 47° |
| 2026-04-25 14:27 | 39.90446 | -75.07099 | 37069 ft | 510 kts | 48° |
| 2026-04-25 14:27 | 39.94575 | -74.99673 | 37071 ft | 509 kts | 47° |
| 2026-04-25 14:28 | 39.98700 | -74.92187 | 37061 ft | 509 kts | 49° |
| 2026-04-25 14:28 | 40.02630 | -74.84491 | 37067 ft | 511 kts | 51° |
| 2026-04-25 14:29 | 40.06505 | -74.76724 | 37067 ft | 511 kts | 51° |
| 2026-04-25 14:29 | 40.10406 | -74.68971 | 37064 ft | 510 kts | 50° |
| 2026-04-25 14:30 | 40.14319 | -74.61239 | 37073 ft | 510 kts | 50° |
| 2026-04-25 14:30 | 40.20376 | -74.49961 | 37074 ft | 501 kts | 40° |
| 2026-04-25 14:31 | 40.25457 | -74.43897 | 37079 ft | 492 kts | 33° |
| 2026-04-25 14:31 | 40.30754 | -74.38205 | 37089 ft | 492 kts | 32° |
| 2026-04-25 14:32 | 40.36058 | -74.32581 | 37103 ft | 490 kts | 32° |
| 2026-04-25 14:32 | 40.41319 | -74.26966 | 37107 ft | 489 kts | 32° |
| 2026-04-25 14:33 | 40.46610 | -74.21285 | 37110 ft | 489 kts | 32° |
| 2026-04-25 14:33 | 40.51834 | -74.15655 | 37115 ft | 489 kts | 32° |
| 2026-04-25 14:34 | 40.57085 | -74.09988 | 37132 ft | 488 kts | 32° |
| 2026-04-25 14:34 | 40.62328 | -74.04319 | 37135 ft | 488 kts | 32° |
| 2026-04-25 14:35 | 40.67571 | -73.98628 | 37148 ft | 488 kts | 32° |
| 2026-04-25 14:35 | 40.72748 | -73.92996 | 37138 ft | 485 kts | 32° |
| 2026-04-25 14:36 | 40.77944 | -73.87339 | 37108 ft | 484 kts | 32° |
| 2026-04-25 14:36 | 40.83146 | -73.81679 | 37104 ft | 483 kts | 31° |
| 2026-04-25 14:37 | 40.88790 | -73.77202 | 37109 ft | 466 kts | 15° |
| 2026-04-25 14:37 | 40.94819 | -73.74123 | 37109 ft | 464 kts | 13° |
| 2026-04-25 14:38 | 41.00890 | -73.71235 | 37110 ft | 464 kts | 13° |
| 2026-04-25 14:38 | 41.06924 | -73.68382 | 37110 ft | 464 kts | 13° |
| 2026-04-25 14:39 | 41.12995 | -73.65486 | 37109 ft | 464 kts | 13° |
| 2026-04-25 14:39 | 41.19061 | -73.62573 | 37110 ft | 463 kts | 13° |
| 2026-04-25 14:40 | 41.25115 | -73.59659 | 37127 ft | 462 kts | 13° |
| 2026-04-25 14:40 | 41.31279 | -73.57748 | 37129 ft | 451 kts | 1° |
| 2026-04-25 14:41 | 41.37457 | -73.56788 | 37130 ft | 450 kts | 0° |
| 2026-04-25 14:41 | 41.43686 | -73.55963 | 37137 ft | 450 kts | 360° |
| 2026-04-25 14:42 | 41.47853 | -73.55419 | 37126 ft | 449 kts | 0° |
| 2026-04-25 14:42 | 41.56132 | -73.54315 | 37106 ft | 449 kts | 0° |
| 2026-04-25 14:43 | 41.62353 | -73.53470 | 37100 ft | 449 kts | 0° |
| 2026-04-25 14:43 | 41.68535 | -73.52626 | 37095 ft | 449 kts | 0° |
| 2026-04-25 14:44 | 41.74753 | -73.51775 | 37094 ft | 449 kts | 0° |
| 2026-04-25 14:44 | 41.80980 | -73.50923 | 37109 ft | 449 kts | 0° |
| 2026-04-25 14:45 | 41.87199 | -73.50071 | 37103 ft | 449 kts | 0° |
| 2026-04-25 14:45 | 41.93411 | -73.49219 | 37098 ft | 449 kts | 0° |
| 2026-04-25 14:46 | 41.99623 | -73.48364 | 37083 ft | 449 kts | 0° |
| 2026-04-25 14:46 | 42.05801 | -73.47513 | 37082 ft | 448 kts | 0° |
| 2026-04-25 14:47 | 42.09949 | -73.46941 | 37089 ft | 449 kts | 0° |
| 2026-04-25 14:47 | 42.18220 | -73.45800 | 37065 ft | 449 kts | 0° |
| 2026-04-25 14:48 | 42.24431 | -73.44939 | 37078 ft | 449 kts | 0° |
| 2026-04-25 14:48 | 42.30601 | -73.44079 | 37077 ft | 449 kts | 0° |
| 2026-04-25 14:49 | 42.36813 | -73.43213 | 37080 ft | 449 kts | 0° |
| 2026-04-25 14:49 | 42.43019 | -73.42348 | 37096 ft | 449 kts | 0° |
| 2026-04-25 14:50 | 42.48187 | -73.41626 | 37079 ft | 449 kts | 0° |
| 2026-04-25 14:51 | 42.61276 | -73.39792 | 37089 ft | 449 kts | 0° |
| 2026-04-25 14:51 | 42.67440 | -73.38925 | 37095 ft | 448 kts | 0° |
| 2026-04-25 14:52 | 42.73649 | -73.38053 | 37101 ft | 449 kts | 0° |
| 2026-04-25 14:52 | 42.78807 | -73.37325 | 37097 ft | 449 kts | 0° |
| 2026-04-25 14:53 | 42.86069 | -73.36298 | 37093 ft | 449 kts | 360° |
| 2026-04-25 14:53 | 42.92285 | -73.35419 | 37092 ft | 449 kts | 360° |
| 2026-04-25 14:54 | 42.98458 | -73.34543 | 37090 ft | 449 kts | 360° |
| 2026-04-25 14:54 | 43.04673 | -73.33764 | 37090 ft | 448 kts | 358° |
| 2026-04-25 14:55 | 43.10887 | -73.33158 | 37089 ft | 448 kts | 358° |
| 2026-04-25 14:55 | 43.17101 | -73.32554 | 37098 ft | 448 kts | 358° |
| 2026-04-25 14:56 | 43.23323 | -73.31920 | 37104 ft | 448 kts | 358° |
| 2026-04-25 14:56 | 43.29538 | -73.31271 | 37104 ft | 448 kts | 358° |
| 2026-04-25 14:57 | 43.35714 | -73.30622 | 37104 ft | 448 kts | 358° |
| 2026-04-25 14:57 | 43.41937 | -73.29968 | 37120 ft | 448 kts | 358° |
| 2026-04-25 14:58 | 43.48123 | -73.29316 | 37104 ft | 444 kts | 358° |
| 2026-04-25 14:58 | 43.54279 | -73.28667 | 37105 ft | 443 kts | 358° |
| 2026-04-25 14:59 | 43.60435 | -73.28018 | 37105 ft | 444 kts | 358° |
| 2026-04-25 14:59 | 43.66547 | -73.27373 | 37106 ft | 444 kts | 358° |
| 2026-04-25 15:00 | 43.72706 | -73.26721 | 37100 ft | 444 kts | 358° |
| 2026-04-25 15:00 | 43.78862 | -73.26066 | 37110 ft | 444 kts | 358° |
| 2026-04-25 15:01 | 43.85020 | -73.25412 | 37080 ft | 444 kts | 358° |
| 2026-04-25 15:01 | 43.91193 | -73.24756 | 37108 ft | 447 kts | 358° |
| 2026-04-25 15:02 | 43.97351 | -73.23368 | 37111 ft | 459 kts | 10° |
| 2026-04-25 15:02 | 44.03191 | -73.19550 | 37101 ft | 475 kts | 27° |
| 2026-04-25 15:03 | 44.08037 | -73.13091 | 37111 ft | 494 kts | 46° |
| 2026-04-25 15:03 | 44.12059 | -73.05280 | 37138 ft | 498 kts | 48° |
| 2026-04-25 15:04 | 44.15917 | -72.97317 | 37128 ft | 495 kts | 48° |
| 2026-04-25 15:04 | 44.19747 | -72.89437 | 37138 ft | 494 kts | 47° |
| 2026-04-25 15:05 | 44.23624 | -72.81533 | 37145 ft | 494 kts | 47° |
| 2026-04-25 15:06 | 44.29392 | -72.69793 | 37142 ft | 491 kts | 47° |
| 2026-04-25 15:06 | 44.33237 | -72.61937 | 37145 ft | 491 kts | 47° |
| 2026-04-25 15:07 | 44.37074 | -72.54086 | 37163 ft | 493 kts | 47° |
| 2026-04-25 15:07 | 44.40926 | -72.46164 | 37136 ft | 492 kts | 47° |
| 2026-04-25 15:08 | 44.44770 | -72.38240 | 37121 ft | 492 kts | 47° |
| 2026-04-25 15:08 | 44.48609 | -72.30308 | 37136 ft | 492 kts | 47° |
| 2026-04-25 15:09 | 44.52443 | -72.22364 | 37121 ft | 492 kts | 47° |
| 2026-04-25 15:09 | 44.58156 | -72.10485 | 37139 ft | 491 kts | 47° |
| 2026-04-25 15:10 | 44.61972 | -72.02526 | 37136 ft | 492 kts | 47° |
| 2026-04-25 15:11 | 44.67687 | -71.90560 | 37133 ft | 492 kts | 47° |
| 2026-04-25 15:11 | 44.71488 | -71.82573 | 37150 ft | 491 kts | 47° |
| 2026-04-25 15:12 | 44.77150 | -71.70635 | 37143 ft | 491 kts | 48° |
| 2026-04-25 15:12 | 44.79685 | -71.65278 | 37137 ft | 491 kts | 48° |
| 2026-04-25 15:13 | 44.86606 | -71.50588 | 37143 ft | 492 kts | 48° |
| 2026-04-25 15:14 | 44.90380 | -71.42547 | 37141 ft | 492 kts | 48° |
| 2026-04-25 15:14 | 44.94148 | -71.34496 | 37146 ft | 491 kts | 49° |
| 2026-04-25 15:15 | 44.97879 | -71.26506 | 37144 ft | 491 kts | 49° |
| 2026-04-25 15:15 | 45.01631 | -71.18450 | 37153 ft | 491 kts | 49° |
| 2026-04-25 15:16 | 45.05371 | -71.10391 | 37143 ft | 490 kts | 49° |
| 2026-04-25 15:16 | 45.10775 | -70.98085 | 37148 ft | 498 kts | 57° |
| 2026-04-25 15:17 | 45.15123 | -70.84678 | 37144 ft | 500 kts | 59° |
| 2026-04-25 15:18 | 45.17900 | -70.75714 | 37144 ft | 501 kts | 59° |
| 2026-04-25 15:18 | 45.22100 | -70.62144 | 37138 ft | 501 kts | 59° |
| 2026-04-25 15:19 | 45.23974 | -70.56089 | 37137 ft | 501 kts | 59° |
| 2026-04-25 15:19 | 45.27697 | -70.44035 | 37160 ft | 501 kts | 59° |
| 2026-04-25 15:20 | 45.30468 | -70.35033 | 37135 ft | 501 kts | 59° |
| 2026-04-25 15:20 | 45.33247 | -70.25966 | 37146 ft | 500 kts | 60° |
| 2026-04-25 15:21 | 45.36017 | -70.16892 | 37132 ft | 500 kts | 60° |
| 2026-04-25 15:21 | 45.38782 | -70.07805 | 37133 ft | 500 kts | 60° |
| 2026-04-25 15:22 | 45.41536 | -69.98719 | 37130 ft | 500 kts | 60° |
| 2026-04-25 15:22 | 45.44279 | -69.89636 | 37133 ft | 499 kts | 61° |
| 2026-04-25 15:23 | 45.46997 | -69.80609 | 37129 ft | 499 kts | 61° |
| 2026-04-25 15:23 | 45.49727 | -69.71510 | 37124 ft | 499 kts | 61° |
| 2026-04-25 15:24 | 45.52448 | -69.62405 | 37128 ft | 499 kts | 61° |
| 2026-04-25 15:24 | 45.54265 | -69.56305 | 37127 ft | 499 kts | 62° |
| 2026-04-25 15:25 | 45.57868 | -69.44165 | 37117 ft | 499 kts | 62° |
| 2026-04-25 15:25 | 45.60526 | -69.35180 | 37124 ft | 498 kts | 62° |
| 2026-04-25 15:26 | 45.63196 | -69.26115 | 37117 ft | 499 kts | 62° |
| 2026-04-25 15:26 | 45.65881 | -69.16965 | 37122 ft | 499 kts | 62° |
| 2026-04-25 15:27 | 45.68555 | -69.07818 | 37122 ft | 498 kts | 63° |
| 2026-04-25 15:28 | 45.72548 | -68.94095 | 37121 ft | 498 kts | 63° |
| 2026-04-25 15:28 | 45.75202 | -68.84932 | 37124 ft | 498 kts | 63° |
| 2026-04-25 15:29 | 45.77831 | -68.75826 | 37111 ft | 498 kts | 63° |
| 2026-04-25 15:29 | 45.80468 | -68.66655 | 37120 ft | 497 kts | 63° |
| 2026-04-25 15:30 | 45.83097 | -68.57480 | 37115 ft | 498 kts | 63° |
| 2026-04-25 15:30 | 45.85721 | -68.48287 | 37115 ft | 498 kts | 63° |
| 2026-04-25 15:31 | 45.88335 | -68.39091 | 37114 ft | 498 kts | 64° |
| 2026-04-25 15:31 | 45.90944 | -68.29882 | 37102 ft | 498 kts | 64° |
| 2026-04-25 15:32 | 45.93526 | -68.20731 | 37104 ft | 498 kts | 64° |
| 2026-04-25 15:32 | 45.96118 | -68.11513 | 37088 ft | 497 kts | 64° |
| 2026-04-25 15:33 | 45.99987 | -67.97684 | 37075 ft | 497 kts | 65° |
| 2026-04-25 15:33 | 46.02555 | -67.88465 | 37067 ft | 497 kts | 65° |
| 2026-04-25 15:34 | 46.05815 | -67.79809 | 37062 ft | 490 kts | 53° |
| 2026-04-25 15:34 | 46.08367 | -67.74456 | 37063 ft | 489 kts | 52° |
| 2026-04-25 15:35 | 46.15625 | -67.59880 | 37064 ft | 489 kts | 51° |
| 2026-04-25 15:36 | 46.21555 | -67.47916 | 37071 ft | 487 kts | 52° |
| 2026-04-25 15:36 | 46.25470 | -67.39957 | 37067 ft | 486 kts | 52° |
| 2026-04-25 15:37 | 46.29378 | -67.31989 | 37064 ft | 486 kts | 52° |
| 2026-04-25 15:37 | 46.33252 | -67.24070 | 37064 ft | 486 kts | 52° |
| 2026-04-25 15:38 | 46.37139 | -67.16099 | 37063 ft | 483 kts | 52° |
| 2026-04-25 15:38 | 46.41007 | -67.08147 | 37056 ft | 482 kts | 52° |
| 2026-04-25 15:39 | 46.44213 | -67.01539 | 37057 ft | 482 kts | 52° |
| 2026-04-25 15:39 | 46.48065 | -66.93580 | 37056 ft | 482 kts | 52° |
| 2026-04-25 15:40 | 46.51263 | -66.86953 | 37056 ft | 482 kts | 52° |
| 2026-04-25 15:40 | 46.56376 | -66.76323 | 37057 ft | 482 kts | 52° |
| 2026-04-25 15:41 | 46.60215 | -66.68320 | 37051 ft | 483 kts | 52° |
| 2026-04-25 15:41 | 46.63404 | -66.61651 | 37048 ft | 483 kts | 52° |
| 2026-04-25 15:42 | 46.67853 | -66.52320 | 37047 ft | 483 kts | 53° |
| 2026-04-25 15:42 | 46.71674 | -66.44283 | 37045 ft | 482 kts | 53° |
| 2026-04-25 15:43 | 46.74846 | -66.37593 | 37045 ft | 483 kts | 53° |
| 2026-04-25 15:43 | 46.78655 | -66.29537 | 37045 ft | 483 kts | 53° |
| 2026-04-25 15:44 | 46.83075 | -66.20161 | 37048 ft | 482 kts | 53° |
| 2026-04-25 15:44 | 46.86253 | -66.13399 | 37051 ft | 482 kts | 53° |
| 2026-04-25 15:45 | 46.90013 | -66.05377 | 37052 ft | 482 kts | 53° |
| 2026-04-25 15:45 | 46.93181 | -65.98602 | 37054 ft | 482 kts | 53° |
| 2026-04-25 15:46 | 46.97570 | -65.89188 | 37055 ft | 481 kts | 53° |
| 2026-04-25 15:46 | 47.01332 | -65.81092 | 37034 ft | 481 kts | 53° |
| 2026-04-25 15:47 | 47.05085 | -65.72991 | 37056 ft | 480 kts | 53° |
| 2026-04-25 15:47 | 47.08811 | -65.64928 | 37058 ft | 481 kts | 53° |
| 2026-04-25 15:48 | 47.12552 | -65.56804 | 37054 ft | 480 kts | 54° |
| 2026-04-25 15:48 | 47.16284 | -65.48679 | 37056 ft | 479 kts | 54° |
| 2026-04-25 15:49 | 47.20006 | -65.40551 | 37051 ft | 480 kts | 53° |
| 2026-04-25 15:49 | 47.23727 | -65.32402 | 37050 ft | 479 kts | 54° |
| 2026-04-25 15:50 | 47.27439 | -65.24248 | 37048 ft | 479 kts | 54° |
| 2026-04-25 15:50 | 47.31123 | -65.16130 | 37030 ft | 481 kts | 54° |
| 2026-04-25 15:51 | 47.34236 | -65.09254 | 37033 ft | 481 kts | 54° |
| 2026-04-25 15:51 | 47.38544 | -64.99707 | 37024 ft | 481 kts | 54° |
| 2026-04-25 15:52 | 47.42248 | -64.91475 | 37017 ft | 480 kts | 54° |
| 2026-04-25 15:52 | 47.45910 | -64.83308 | 37017 ft | 480 kts | 54° |
| 2026-04-25 15:53 | 47.49591 | -64.75077 | 37012 ft | 480 kts | 54° |
| 2026-04-25 15:53 | 47.53267 | -64.66831 | 37009 ft | 480 kts | 54° |
| 2026-04-25 15:54 | 47.56936 | -64.58576 | 37011 ft | 479 kts | 55° |
| 2026-04-25 15:54 | 47.60593 | -64.50323 | 37013 ft | 479 kts | 55° |
| 2026-04-25 15:55 | 47.64221 | -64.42111 | 37014 ft | 479 kts | 54° |
| 2026-04-25 15:55 | 47.67861 | -64.33846 | 37004 ft | 478 kts | 54° |
| 2026-04-25 15:56 | 47.71494 | -64.25573 | 37006 ft | 478 kts | 54° |
| 2026-04-25 15:56 | 47.75114 | -64.17305 | 36994 ft | 477 kts | 54° |
| 2026-04-25 15:57 | 47.78720 | -64.09037 | 36989 ft | 476 kts | 54° |
| 2026-04-25 15:57 | 47.82326 | -64.00752 | 36993 ft | 477 kts | 54° |
| 2026-04-25 15:58 | 47.85900 | -63.92514 | 36981 ft | 477 kts | 55° |
| 2026-04-25 15:58 | 47.89486 | -63.84224 | 36980 ft | 476 kts | 54° |
| 2026-04-25 15:59 | 47.93068 | -63.75922 | 36976 ft | 476 kts | 55° |
| 2026-04-25 15:59 | 47.96640 | -63.67615 | 36968 ft | 476 kts | 54° |
| 2026-04-25 16:00 | 47.99603 | -63.60701 | 36972 ft | 475 kts | 55° |
| 2026-04-25 16:00 | 48.03739 | -63.51022 | 36968 ft | 476 kts | 55° |
| 2026-04-25 16:01 | 48.07304 | -63.42660 | 36952 ft | 477 kts | 55° |
| 2026-04-25 16:01 | 48.10860 | -63.34283 | 36971 ft | 477 kts | 55° |
| 2026-04-25 16:02 | 48.14414 | -63.25891 | 36960 ft | 477 kts | 56° |
| 2026-04-25 16:02 | 48.17962 | -63.17478 | 36969 ft | 478 kts | 54° |
| 2026-04-25 16:03 | 48.21483 | -63.09106 | 36951 ft | 478 kts | 55° |
| 2026-04-25 16:03 | 48.25023 | -63.00665 | 36951 ft | 478 kts | 55° |
| 2026-04-25 16:04 | 48.28558 | -62.92216 | 36941 ft | 478 kts | 55° |
| 2026-04-25 16:04 | 48.32089 | -62.83749 | 36943 ft | 479 kts | 55° |
| 2026-04-25 16:05 | 48.35619 | -62.75249 | 36936 ft | 479 kts | 55° |
| 2026-04-25 16:06 | 48.40877 | -62.62541 | 36924 ft | 479 kts | 55° |
| 2026-04-25 16:06 | 48.44390 | -62.54017 | 36928 ft | 479 kts | 56° |
| 2026-04-25 16:07 | 48.47900 | -62.45475 | 36918 ft | 480 kts | 56° |
| 2026-04-25 16:07 | 48.51411 | -62.36905 | 36915 ft | 480 kts | 56° |
| 2026-04-25 16:08 | 48.54890 | -62.28383 | 36905 ft | 480 kts | 56° |
| 2026-04-25 16:08 | 48.58386 | -62.19792 | 36899 ft | 480 kts | 56° |
| 2026-04-25 16:09 | 48.61876 | -62.11189 | 36902 ft | 480 kts | 56° |
| 2026-04-25 16:09 | 48.65355 | -62.02584 | 36898 ft | 480 kts | 56° |
| 2026-04-25 16:10 | 48.68805 | -61.94025 | 36900 ft | 480 kts | 56° |
| 2026-04-25 16:10 | 48.72273 | -61.85396 | 36884 ft | 479 kts | 56° |
| 2026-04-25 16:11 | 48.75728 | -61.76767 | 36885 ft | 479 kts | 56° |
| 2026-04-25 16:11 | 48.79179 | -61.68123 | 36878 ft | 479 kts | 56° |
| 2026-04-25 16:12 | 48.82622 | -61.59470 | 36869 ft | 479 kts | 56° |
| 2026-04-25 16:12 | 48.86034 | -61.50865 | 36867 ft | 479 kts | 56° |
| 2026-04-25 16:13 | 48.89462 | -61.42196 | 36869 ft | 479 kts | 56° |
| 2026-04-25 16:13 | 48.92888 | -61.33499 | 36867 ft | 479 kts | 56° |
| 2026-04-25 16:14 | 48.96258 | -61.24918 | 36856 ft | 479 kts | 56° |
| 2026-04-25 16:14 | 48.99671 | -61.16199 | 36856 ft | 479 kts | 57° |
| 2026-04-25 16:15 | 49.03052 | -61.07533 | 36856 ft | 479 kts | 57° |
| 2026-04-25 16:15 | 49.06448 | -60.98802 | 36851 ft | 478 kts | 57° |
| 2026-04-25 16:16 | 49.09832 | -60.90071 | 36849 ft | 478 kts | 57° |
| 2026-04-25 16:16 | 49.13209 | -60.81329 | 36837 ft | 478 kts | 57° |
| 2026-04-25 16:17 | 49.16582 | -60.72569 | 36834 ft | 478 kts | 57° |
| 2026-04-25 16:17 | 49.19922 | -60.63867 | 36834 ft | 478 kts | 57° |
| 2026-04-25 16:18 | 49.23276 | -60.55098 | 36828 ft | 478 kts | 57° |
| 2026-04-25 16:18 | 49.26625 | -60.46313 | 36823 ft | 478 kts | 57° |
| 2026-04-25 16:19 | 49.29967 | -60.37517 | 36823 ft | 478 kts | 58° |
| 2026-04-25 16:19 | 49.33301 | -60.28711 | 36824 ft | 478 kts | 58° |
| 2026-04-25 16:20 | 49.38264 | -60.15549 | 36826 ft | 477 kts | 58° |
| 2026-04-25 16:21 | 49.43234 | -60.02303 | 36810 ft | 477 kts | 58° |
| 2026-04-25 16:21 | 49.46535 | -59.93467 | 36812 ft | 477 kts | 58° |
| 2026-04-25 16:22 | 49.49808 | -59.84677 | 36809 ft | 477 kts | 58° |
| 2026-04-25 16:22 | 49.53096 | -59.75817 | 36800 ft | 477 kts | 58° |
| 2026-04-25 16:23 | 49.56378 | -59.66940 | 36799 ft | 477 kts | 58° |
| 2026-04-25 16:23 | 49.59654 | -59.58054 | 36801 ft | 477 kts | 58° |
| 2026-04-25 16:24 | 49.62922 | -59.49157 | 36801 ft | 476 kts | 58° |
| 2026-04-25 16:24 | 49.66155 | -59.40326 | 36787 ft | 475 kts | 59° |
| 2026-04-25 16:25 | 49.69396 | -59.31438 | 36789 ft | 475 kts | 58° |
| 2026-04-25 16:25 | 49.72630 | -59.22543 | 36799 ft | 475 kts | 58° |
| 2026-04-25 16:26 | 49.75858 | -59.13628 | 36798 ft | 475 kts | 59° |
| 2026-04-25 16:26 | 49.79080 | -59.04704 | 36790 ft | 475 kts | 59° |
| 2026-04-25 16:27 | 49.82278 | -58.95814 | 36772 ft | 476 kts | 59° |
| 2026-04-25 16:27 | 49.85491 | -58.86854 | 36776 ft | 476 kts | 59° |
| 2026-04-25 16:28 | 49.88696 | -58.77886 | 36791 ft | 476 kts | 59° |
| 2026-04-25 16:28 | 49.91894 | -58.68902 | 36774 ft | 475 kts | 59° |
| 2026-04-25 16:29 | 49.95082 | -58.59922 | 36770 ft | 475 kts | 60° |
| 2026-04-25 16:29 | 49.98266 | -58.50919 | 36767 ft | 476 kts | 59° |
| 2026-04-25 16:30 | 50.01446 | -58.41895 | 36777 ft | 476 kts | 59° |
| 2026-04-25 16:30 | 50.04593 | -58.32934 | 36764 ft | 475 kts | 60° |
| 2026-04-25 16:31 | 50.07752 | -58.23902 | 36753 ft | 475 kts | 60° |
| 2026-04-25 16:31 | 50.10909 | -58.14847 | 36753 ft | 476 kts | 59° |
| 2026-04-25 16:32 | 50.14059 | -58.05781 | 36751 ft | 476 kts | 60° |
| 2026-04-25 16:32 | 50.17199 | -57.96704 | 36753 ft | 476 kts | 60° |
| 2026-04-25 16:33 | 50.20337 | -57.87605 | 36751 ft | 477 kts | 60° |
| 2026-04-25 16:33 | 50.23456 | -57.78534 | 36748 ft | 477 kts | 60° |
| 2026-04-25 16:34 | 50.26587 | -57.69396 | 36752 ft | 477 kts | 60° |
| 2026-04-25 16:34 | 50.29710 | -57.60243 | 36756 ft | 477 kts | 60° |
| 2026-04-25 16:35 | 50.32826 | -57.51080 | 36753 ft | 477 kts | 60° |
| 2026-04-25 16:35 | 50.35910 | -57.41975 | 36754 ft | 476 kts | 60° |
| 2026-04-25 16:36 | 50.39006 | -57.32803 | 36771 ft | 476 kts | 60° |
| 2026-04-25 16:36 | 50.42093 | -57.23623 | 36757 ft | 477 kts | 60° |
| 2026-04-25 16:37 | 50.45177 | -57.14421 | 36757 ft | 476 kts | 61° |
| 2026-04-25 16:37 | 50.48251 | -57.05213 | 36747 ft | 476 kts | 60° |
| 2026-04-25 16:38 | 50.51310 | -56.96020 | 36744 ft | 475 kts | 61° |
| 2026-04-25 16:38 | 50.54338 | -56.86879 | 36742 ft | 474 kts | 61° |
| 2026-04-25 16:39 | 50.57381 | -56.77667 | 36754 ft | 475 kts | 61° |
| 2026-04-25 16:39 | 50.60420 | -56.68430 | 36740 ft | 475 kts | 61° |
| 2026-04-25 16:40 | 50.63444 | -56.59208 | 36728 ft | 473 kts | 61° |
| 2026-04-25 16:40 | 50.66436 | -56.50045 | 36730 ft | 473 kts | 61° |
| 2026-04-25 16:41 | 50.69434 | -56.40830 | 36729 ft | 473 kts | 61° |
| 2026-04-25 16:41 | 50.73924 | -56.26971 | 36711 ft | 473 kts | 61° |
| 2026-04-25 16:42 | 50.76903 | -56.17730 | 36708 ft | 472 kts | 62° |
| 2026-04-25 16:42 | 50.79858 | -56.08529 | 36700 ft | 472 kts | 62° |
| 2026-04-25 16:43 | 50.82822 | -55.99266 | 36700 ft | 472 kts | 62° |
| 2026-04-25 16:43 | 50.85779 | -55.89988 | 36683 ft | 472 kts | 62° |
| 2026-04-25 16:44 | 50.88725 | -55.80715 | 36679 ft | 471 kts | 62° |
| 2026-04-25 16:44 | 50.91659 | -55.71441 | 36674 ft | 471 kts | 62° |
| 2026-04-25 16:45 | 50.94569 | -55.62209 | 36677 ft | 472 kts | 62° |
| 2026-04-25 16:45 | 50.97496 | -55.52890 | 36659 ft | 472 kts | 62° |
| 2026-04-25 16:46 | 51.00418 | -55.43554 | 36656 ft | 472 kts | 63° |
| 2026-04-25 16:46 | 51.02349 | -55.37361 | 36651 ft | 471 kts | 62° |
| 2026-04-25 16:47 | 51.06225 | -55.24883 | 36650 ft | 471 kts | 62° |
| 2026-04-25 16:47 | 51.09095 | -55.15603 | 36644 ft | 471 kts | 62° |
| 2026-04-25 16:48 | 51.11977 | -55.06245 | 36620 ft | 471 kts | 63° |
| 2026-04-25 16:48 | 51.14856 | -54.96871 | 36620 ft | 472 kts | 63° |
| 2026-04-25 16:49 | 51.17727 | -54.87483 | 36627 ft | 472 kts | 63° |
| 2026-04-25 16:49 | 51.20575 | -54.78135 | 36625 ft | 472 kts | 63° |
| 2026-04-25 16:50 | 51.23433 | -54.68714 | 36608 ft | 472 kts | 63° |
| 2026-04-25 16:50 | 51.26282 | -54.59285 | 36611 ft | 472 kts | 63° |
| 2026-04-25 16:51 | 51.29123 | -54.49846 | 36603 ft | 471 kts | 63° |
| 2026-04-25 16:51 | 51.30995 | -54.43605 | 36606 ft | 470 kts | 63° |
| 2026-04-25 16:52 | 51.34747 | -54.31050 | 36606 ft | 471 kts | 63° |
| 2026-04-25 16:52 | 51.37567 | -54.21580 | 36594 ft | 472 kts | 63° |
| 2026-04-25 16:53 | 51.41785 | -54.07332 | 36598 ft | 472 kts | 64° |
| 2026-04-25 16:54 | 51.44584 | -53.97830 | 36577 ft | 471 kts | 64° |
| 2026-04-25 16:54 | 51.47345 | -53.88371 | 36571 ft | 471 kts | 65° |
| 2026-04-25 16:55 | 51.49347 | -53.78356 | 36593 ft | 472 kts | 74° |
| 2026-04-25 16:55 | 51.50943 | -53.68125 | 36596 ft | 473 kts | 75° |
| 2026-04-25 16:56 | 51.52464 | -53.57846 | 36588 ft | 474 kts | 75° |
| 2026-04-25 16:56 | 51.53981 | -53.47547 | 36576 ft | 474 kts | 75° |
| 2026-04-25 16:57 | 51.55469 | -53.37466 | 36579 ft | 473 kts | 75° |
| 2026-04-25 16:57 | 51.56981 | -53.27198 | 36579 ft | 473 kts | 75° |
| 2026-04-25 16:58 | 51.58487 | -53.16916 | 36566 ft | 473 kts | 75° |
| 2026-04-25 16:58 | 51.59983 | -53.06619 | 36556 ft | 473 kts | 76° |
| 2026-04-25 16:59 | 51.61458 | -52.96389 | 36546 ft | 472 kts | 76° |
| 2026-04-25 16:59 | 51.62932 | -52.86103 | 36536 ft | 471 kts | 76° |
| 2026-04-25 17:00 | 51.64152 | -52.77549 | 36552 ft | 472 kts | 76° |
| 2026-04-25 17:00 | 51.65861 | -52.65482 | 36552 ft | 472 kts | 76° |
| 2026-04-25 17:01 | 51.67312 | -52.55152 | 36531 ft | 473 kts | 76° |
| 2026-04-25 17:01 | 51.68745 | -52.44880 | 36531 ft | 473 kts | 76° |
| 2026-04-25 17:02 | 51.70178 | -52.34529 | 36532 ft | 473 kts | 76° |
| 2026-04-25 17:02 | 51.71598 | -52.24184 | 36524 ft | 473 kts | 76° |
| 2026-04-25 17:03 | 51.73013 | -52.13825 | 36539 ft | 473 kts | 76° |
| 2026-04-25 17:03 | 51.74410 | -52.03538 | 36529 ft | 473 kts | 76° |
| 2026-04-25 17:04 | 51.75807 | -51.93169 | 36520 ft | 473 kts | 76° |
| 2026-04-25 17:04 | 51.77195 | -51.82794 | 36525 ft | 473 kts | 77° |
| 2026-04-25 17:05 | 51.78575 | -51.72398 | 36526 ft | 474 kts | 77° |
| 2026-04-25 17:05 | 51.80613 | -51.56889 | 36510 ft | 473 kts | 77° |
| 2026-04-25 17:06 | 51.81970 | -51.46480 | 36514 ft | 473 kts | 77° |
| 2026-04-25 17:06 | 51.83316 | -51.36075 | 36502 ft | 473 kts | 77° |
| 2026-04-25 17:07 | 51.84653 | -51.25667 | 36502 ft | 473 kts | 77° |
| 2026-04-25 17:07 | 51.85975 | -51.15300 | 36510 ft | 474 kts | 78° |
| 2026-04-25 17:08 | 51.87297 | -51.04855 | 36511 ft | 474 kts | 78° |
| 2026-04-25 17:08 | 51.88612 | -50.94389 | 36498 ft | 475 kts | 78° |
| 2026-04-25 17:09 | 51.89918 | -50.83906 | 36507 ft | 476 kts | 78° |
| 2026-04-25 17:09 | 51.91206 | -50.73484 | 36490 ft | 475 kts | 78° |
| 2026-04-25 17:10 | 51.92492 | -50.62999 | 36491 ft | 475 kts | 78° |
| 2026-04-25 17:10 | 51.93770 | -50.52494 | 36493 ft | 475 kts | 78° |
| 2026-04-25 17:11 | 51.95038 | -50.41991 | 36485 ft | 475 kts | 78° |
| 2026-04-25 17:11 | 51.96287 | -50.31570 | 36486 ft | 475 kts | 78° |
| 2026-04-25 17:12 | 51.97538 | -50.21047 | 36489 ft | 475 kts | 79° |
| 2026-04-25 17:12 | 51.98781 | -50.10508 | 36485 ft | 476 kts | 79° |
| 2026-04-25 17:13 | 51.99598 | -50.03531 | 36476 ft | 476 kts | 79° |
| 2026-04-25 17:13 | 52.01412 | -49.89473 | 36481 ft | 475 kts | 76° |
| 2026-04-25 17:14 | 52.02965 | -49.79110 | 36485 ft | 475 kts | 76° |
| 2026-04-25 17:14 | 52.04505 | -49.68669 | 36474 ft | 475 kts | 77° |
| 2026-04-25 17:15 | 52.06004 | -49.58203 | 36481 ft | 475 kts | 77° |
| 2026-04-25 17:15 | 52.07479 | -49.47728 | 36473 ft | 475 kts | 77° |
| 2026-04-25 17:16 | 52.08933 | -49.37312 | 36477 ft | 476 kts | 77° |
| 2026-04-25 17:16 | 52.10390 | -49.26811 | 36471 ft | 477 kts | 77° |
| 2026-04-25 17:17 | 52.11842 | -49.16286 | 36473 ft | 477 kts | 77° |
| 2026-04-25 17:17 | 52.13284 | -49.05757 | 36468 ft | 477 kts | 77° |
| 2026-04-25 17:18 | 52.14707 | -48.95292 | 36466 ft | 477 kts | 78° |
| 2026-04-25 17:18 | 52.16129 | -48.84754 | 36471 ft | 477 kts | 78° |
| 2026-04-25 17:19 | 52.17543 | -48.74203 | 36477 ft | 477 kts | 78° |
| 2026-04-25 17:19 | 52.18946 | -48.63658 | 36475 ft | 476 kts | 78° |
| 2026-04-25 17:20 | 52.20340 | -48.53104 | 36478 ft | 477 kts | 78° |
| 2026-04-25 17:20 | 52.21719 | -48.42580 | 36462 ft | 478 kts | 78° |
| 2026-04-25 17:21 | 52.23100 | -48.31969 | 36470 ft | 478 kts | 78° |
| 2026-04-25 17:21 | 52.24471 | -48.21353 | 36474 ft | 478 kts | 78° |
| 2026-04-25 17:22 | 52.25373 | -48.14318 | 36470 ft | 478 kts | 78° |
| 2026-04-25 17:22 | 52.27175 | -48.00166 | 36466 ft | 478 kts | 79° |
| 2026-04-25 17:23 | 52.28518 | -47.89533 | 36472 ft | 478 kts | 79° |
| 2026-04-25 17:23 | 52.29851 | -47.78887 | 36471 ft | 478 kts | 79° |
| 2026-04-25 17:24 | 52.31173 | -47.68250 | 36473 ft | 478 kts | 79° |
| 2026-04-25 17:24 | 52.32488 | -47.57587 | 36472 ft | 479 kts | 79° |
| 2026-04-25 17:25 | 52.33785 | -47.46976 | 36477 ft | 479 kts | 79° |
| 2026-04-25 17:25 | 52.35082 | -47.36293 | 36486 ft | 479 kts | 79° |
| 2026-04-25 17:26 | 52.36368 | -47.25604 | 36481 ft | 479 kts | 80° |
| 2026-04-25 17:26 | 52.37645 | -47.14916 | 36484 ft | 479 kts | 80° |
| 2026-04-25 17:27 | 52.38903 | -47.04295 | 36481 ft | 479 kts | 80° |
| 2026-04-25 17:27 | 52.39745 | -46.97133 | 36485 ft | 479 kts | 80° |
| 2026-04-25 17:28 | 52.41407 | -46.82885 | 36490 ft | 479 kts | 80° |
| 2026-04-25 17:28 | 52.42646 | -46.72168 | 36490 ft | 479 kts | 80° |
| 2026-04-25 17:29 | 52.43866 | -46.61519 | 36488 ft | 479 kts | 81° |
| 2026-04-25 17:29 | 52.45084 | -46.50792 | 36492 ft | 479 kts | 81° |
| 2026-04-25 17:30 | 52.46292 | -46.40063 | 36495 ft | 478 kts | 81° |
| 2026-04-25 17:30 | 52.47491 | -46.29330 | 36495 ft | 478 kts | 81° |
| 2026-04-25 17:31 | 52.48672 | -46.18662 | 36496 ft | 478 kts | 81° |
| 2026-04-25 17:31 | 52.49851 | -46.07917 | 36494 ft | 478 kts | 81° |
| 2026-04-25 17:32 | 52.51021 | -45.97167 | 36502 ft | 479 kts | 81° |
| 2026-04-25 17:32 | 52.52182 | -45.86406 | 36498 ft | 479 kts | 81° |
| 2026-04-25 17:33 | 52.53326 | -45.75695 | 36502 ft | 480 kts | 82° |
| 2026-04-25 17:33 | 52.54468 | -45.64901 | 36504 ft | 480 kts | 82° |
| 2026-04-25 17:34 | 52.55602 | -45.54098 | 36485 ft | 480 kts | 82° |
| 2026-04-25 17:34 | 52.56725 | -45.43292 | 36510 ft | 480 kts | 82° |
| 2026-04-25 17:35 | 52.57840 | -45.32476 | 36508 ft | 479 kts | 82° |
| 2026-04-25 17:35 | 52.58935 | -45.21740 | 36510 ft | 479 kts | 82° |
| 2026-04-25 17:36 | 52.60029 | -45.10915 | 36512 ft | 479 kts | 82° |
| 2026-04-25 17:36 | 52.61113 | -45.00093 | 36518 ft | 479 kts | 82° |
| 2026-04-25 17:37 | 52.62187 | -44.89263 | 36520 ft | 479 kts | 82° |
| 2026-04-25 17:37 | 52.63243 | -44.78507 | 36526 ft | 479 kts | 82° |
| 2026-04-25 17:38 | 52.63949 | -44.71257 | 36525 ft | 479 kts | 83° |
| 2026-04-25 17:38 | 52.65342 | -44.56813 | 36526 ft | 479 kts | 83° |
| 2026-04-25 17:39 | 52.66377 | -44.45962 | 36523 ft | 479 kts | 83° |
| 2026-04-25 17:39 | 52.67394 | -44.35189 | 36515 ft | 480 kts | 83° |
| 2026-04-25 17:40 | 52.68410 | -44.24309 | 36525 ft | 480 kts | 83° |
| 2026-04-25 17:40 | 52.69416 | -44.13425 | 36534 ft | 481 kts | 83° |
| 2026-04-25 17:41 | 52.70416 | -44.02493 | 36529 ft | 483 kts | 83° |
| 2026-04-25 17:41 | 52.71402 | -43.91610 | 36533 ft | 483 kts | 84° |
| 2026-04-25 17:42 | 52.72384 | -43.80646 | 36539 ft | 483 kts | 84° |
| 2026-04-25 17:42 | 52.73357 | -43.69669 | 36542 ft | 484 kts | 84° |
| 2026-04-25 17:43 | 52.74320 | -43.58681 | 36545 ft | 484 kts | 84° |
| 2026-04-25 17:43 | 52.75267 | -43.47758 | 36545 ft | 484 kts | 84° |
| 2026-04-25 17:44 | 52.76210 | -43.36757 | 36556 ft | 484 kts | 84° |
| 2026-04-25 17:44 | 52.77144 | -43.25743 | 36552 ft | 484 kts | 84° |
| 2026-04-25 17:45 | 52.77758 | -43.18449 | 36544 ft | 485 kts | 85° |
| 2026-04-25 17:45 | 52.78979 | -43.03743 | 36565 ft | 486 kts | 85° |
| 2026-04-25 17:46 | 52.79884 | -42.92682 | 36573 ft | 486 kts | 85° |
| 2026-04-25 17:46 | 52.80780 | -42.81619 | 36573 ft | 486 kts | 85° |
| 2026-04-25 17:47 | 52.81665 | -42.70550 | 36577 ft | 486 kts | 85° |
| 2026-04-25 17:47 | 52.82534 | -42.59554 | 36555 ft | 486 kts | 86° |
| 2026-04-25 17:48 | 52.83825 | -42.42959 | 36593 ft | 485 kts | 86° |
| 2026-04-25 17:49 | 52.84673 | -42.31895 | 36585 ft | 485 kts | 86° |
| 2026-04-25 17:49 | 52.85511 | -42.20819 | 36595 ft | 485 kts | 86° |
| 2026-04-25 17:50 | 52.86332 | -42.09825 | 36595 ft | 485 kts | 86° |
| 2026-04-25 17:50 | 52.87149 | -41.98751 | 36584 ft | 485 kts | 86° |
| 2026-04-25 17:51 | 52.87955 | -41.87677 | 36605 ft | 484 kts | 87° |
| 2026-04-25 17:51 | 52.88750 | -41.76608 | 36615 ft | 484 kts | 87° |
| 2026-04-25 17:52 | 52.89529 | -41.65613 | 36612 ft | 484 kts | 87° |
| 2026-04-25 17:52 | 52.90303 | -41.54535 | 36603 ft | 484 kts | 87° |
| 2026-04-25 17:53 | 52.91067 | -41.43465 | 36611 ft | 484 kts | 87° |
| 2026-04-25 17:53 | 52.91821 | -41.32366 | 36619 ft | 485 kts | 87° |
| 2026-04-25 17:54 | 52.92560 | -41.21345 | 36622 ft | 485 kts | 87° |
| 2026-04-25 17:54 | 52.93295 | -41.10242 | 36623 ft | 485 kts | 88° |
| 2026-04-25 17:55 | 52.94019 | -40.99130 | 36630 ft | 485 kts | 88° |
| 2026-04-25 17:55 | 52.94732 | -40.88022 | 36634 ft | 485 kts | 88° |
| 2026-04-25 17:56 | 52.95430 | -40.76988 | 36637 ft | 485 kts | 88° |
| 2026-04-25 17:56 | 52.96123 | -40.65860 | 36645 ft | 485 kts | 88° |
| 2026-04-25 17:57 | 52.96806 | -40.54724 | 36650 ft | 485 kts | 88° |
| 2026-04-25 17:57 | 52.97480 | -40.43568 | 36648 ft | 487 kts | 88° |
| 2026-04-25 17:58 | 52.98140 | -40.32445 | 36662 ft | 488 kts | 88° |
| 2026-04-25 17:58 | 52.98796 | -40.21239 | 36661 ft | 488 kts | 88° |
| 2026-04-25 17:59 | 52.99441 | -40.10034 | 36658 ft | 488 kts | 88° |
| 2026-04-25 17:59 | 53.00076 | -39.98805 | 36669 ft | 489 kts | 88° |
| 2026-04-25 18:00 | 53.00515 | -39.89468 | 36666 ft | 488 kts | 90° |
| 2026-04-25 18:00 | 53.01007 | -39.76406 | 36680 ft | 487 kts | 90° |
| 2026-04-25 18:01 | 53.01426 | -39.65178 | 36678 ft | 487 kts | 90° |
| 2026-04-25 18:01 | 53.01853 | -39.53923 | 36686 ft | 490 kts | 90° |
| 2026-04-25 18:02 | 53.02208 | -39.44514 | 36686 ft | 491 kts | 90° |
| 2026-04-25 18:02 | 53.02695 | -39.31358 | 36684 ft | 491 kts | 90° |
| 2026-04-25 18:03 | 53.03101 | -39.20035 | 36682 ft | 491 kts | 90° |
| 2026-04-25 18:03 | 53.03429 | -39.10626 | 36695 ft | 491 kts | 90° |
| 2026-04-25 18:04 | 53.03876 | -38.97456 | 36696 ft | 491 kts | 90° |
| 2026-04-25 18:04 | 53.04249 | -38.86132 | 36698 ft | 491 kts | 91° |
| 2026-04-25 18:05 | 53.04610 | -38.74804 | 36691 ft | 491 kts | 91° |
| 2026-04-25 18:05 | 53.04903 | -38.65365 | 36713 ft | 494 kts | 91° |
| 2026-04-25 18:06 | 53.05302 | -38.52104 | 36713 ft | 495 kts | 91° |
| 2026-04-25 18:06 | 53.05635 | -38.40684 | 36712 ft | 495 kts | 91° |
| 2026-04-25 18:07 | 53.05902 | -38.31192 | 36717 ft | 494 kts | 91° |
| 2026-04-25 18:07 | 53.06215 | -38.19778 | 36718 ft | 494 kts | 91° |
| 2026-04-25 18:08 | 53.06563 | -38.06515 | 36727 ft | 494 kts | 91° |
| 2026-04-25 18:08 | 53.06851 | -37.95100 | 36730 ft | 494 kts | 91° |
| 2026-04-25 18:09 | 53.07082 | -37.85616 | 36720 ft | 494 kts | 91° |
| 2026-04-25 18:09 | 53.07350 | -37.74168 | 36743 ft | 497 kts | 91° |
| 2026-04-25 18:10 | 53.07565 | -37.64623 | 36741 ft | 497 kts | 91° |
| 2026-04-25 18:10 | 53.07856 | -37.51205 | 36747 ft | 497 kts | 91° |
| 2026-04-25 18:11 | 53.08092 | -37.39805 | 36742 ft | 497 kts | 91° |
| 2026-04-25 18:11 | 53.08317 | -37.28323 | 36752 ft | 497 kts | 92° |
| 2026-04-25 18:12 | 53.08531 | -37.16839 | 36743 ft | 497 kts | 92° |
| 2026-04-25 18:12 | 53.08734 | -37.05354 | 36762 ft | 497 kts | 92° |
| 2026-04-25 18:13 | 53.08927 | -36.93869 | 36754 ft | 497 kts | 92° |
| 2026-04-25 18:13 | 53.09106 | -36.82427 | 36766 ft | 499 kts | 92° |
| 2026-04-25 18:14 | 53.09359 | -36.65113 | 36766 ft | 499 kts | 92° |
| 2026-04-25 18:14 | 53.09513 | -36.53567 | 36774 ft | 499 kts | 92° |
| 2026-04-25 18:15 | 53.09656 | -36.42090 | 36776 ft | 500 kts | 92° |
| 2026-04-25 18:15 | 53.09788 | -36.30532 | 36782 ft | 500 kts | 92° |
| 2026-04-25 18:16 | 53.09909 | -36.18966 | 36782 ft | 500 kts | 92° |
| 2026-04-25 18:17 | 53.10069 | -36.01619 | 36791 ft | 500 kts | 92° |
| 2026-04-25 18:17 | 53.10161 | -35.90133 | 36793 ft | 500 kts | 93° |
| 2026-04-25 18:18 | 53.10243 | -35.78557 | 36801 ft | 500 kts | 92° |
| 2026-04-25 18:18 | 53.10314 | -35.66984 | 36802 ft | 500 kts | 93° |
| 2026-04-25 18:19 | 53.10373 | -35.55400 | 36812 ft | 500 kts | 93° |
| 2026-04-25 18:19 | 53.10421 | -35.43896 | 36812 ft | 500 kts | 93° |
| 2026-04-25 18:20 | 53.10458 | -35.32322 | 36820 ft | 500 kts | 93° |
| 2026-04-25 18:20 | 53.10484 | -35.20741 | 36802 ft | 501 kts | 93° |
| 2026-04-25 18:21 | 53.10498 | -35.09125 | 36827 ft | 503 kts | 93° |
| 2026-04-25 18:21 | 53.10501 | -34.97568 | 36829 ft | 503 kts | 93° |
| 2026-04-25 18:22 | 53.10493 | -34.85921 | 36836 ft | 503 kts | 93° |
| 2026-04-25 18:22 | 53.10474 | -34.74286 | 36840 ft | 503 kts | 93° |
| 2026-04-25 18:23 | 53.10443 | -34.62648 | 36837 ft | 503 kts | 93° |
| 2026-04-25 18:23 | 53.10401 | -34.51001 | 36846 ft | 504 kts | 94° |
| 2026-04-25 18:24 | 53.10348 | -34.39421 | 36843 ft | 504 kts | 94° |
| 2026-04-25 18:24 | 53.10283 | -34.27763 | 36853 ft | 504 kts | 94° |
| 2026-04-25 18:25 | 53.10206 | -34.16080 | 36858 ft | 505 kts | 94° |
| 2026-04-25 18:25 | 53.10119 | -34.04476 | 36862 ft | 505 kts | 94° |
| 2026-04-25 18:26 | 53.10019 | -33.92789 | 36866 ft | 506 kts | 94° |
| 2026-04-25 18:26 | 53.09908 | -33.81074 | 36866 ft | 506 kts | 94° |
| 2026-04-25 18:27 | 53.09786 | -33.69352 | 36865 ft | 506 kts | 94° |
| 2026-04-25 18:27 | 53.09653 | -33.57719 | 36871 ft | 506 kts | 94° |
| 2026-04-25 18:28 | 53.09508 | -33.46006 | 36871 ft | 506 kts | 94° |
| 2026-04-25 18:28 | 53.09350 | -33.34288 | 36880 ft | 508 kts | 94° |
| 2026-04-25 18:29 | 53.09093 | -33.16729 | 36883 ft | 509 kts | 94° |
| 2026-04-25 18:30 | 53.08709 | -32.93201 | 36895 ft | 509 kts | 94° |
| 2026-04-25 18:30 | 53.08499 | -32.81445 | 36898 ft | 509 kts | 94° |
| 2026-04-25 18:31 | 53.08278 | -32.69684 | 36897 ft | 508 kts | 95° |
| 2026-04-25 18:31 | 53.08047 | -32.58011 | 36908 ft | 508 kts | 95° |
| 2026-04-25 18:32 | 53.07802 | -32.46258 | 36902 ft | 509 kts | 95° |
| 2026-04-25 18:32 | 53.07546 | -32.34501 | 36909 ft | 509 kts | 95° |
| 2026-04-25 18:33 | 53.07278 | -32.22739 | 36908 ft | 509 kts | 95° |
| 2026-04-25 18:33 | 53.07001 | -32.11056 | 36909 ft | 509 kts | 95° |
| 2026-04-25 18:34 | 53.06709 | -31.99288 | 36914 ft | 510 kts | 95° |
| 2026-04-25 18:34 | 53.06407 | -31.87512 | 36919 ft | 510 kts | 95° |
| 2026-04-25 18:35 | 53.06092 | -31.75733 | 36919 ft | 510 kts | 95° |
| 2026-04-25 18:35 | 53.05768 | -31.64046 | 36924 ft | 510 kts | 95° |
| 2026-04-25 18:36 | 53.05430 | -31.52269 | 36915 ft | 510 kts | 95° |
| 2026-04-25 18:36 | 53.05080 | -31.40483 | 36926 ft | 510 kts | 95° |
| 2026-04-25 18:37 | 53.04719 | -31.28700 | 36923 ft | 511 kts | 95° |
| 2026-04-25 18:37 | 53.04346 | -31.16919 | 36931 ft | 510 kts | 95° |
| 2026-04-25 18:38 | 53.03964 | -31.05225 | 36935 ft | 510 kts | 95° |
| 2026-04-25 18:38 | 53.03568 | -30.93453 | 36941 ft | 510 kts | 95° |
| 2026-04-25 18:39 | 53.03159 | -30.81672 | 36944 ft | 512 kts | 95° |
| 2026-04-25 18:39 | 53.02738 | -30.69864 | 36935 ft | 512 kts | 95° |
| 2026-04-25 18:40 | 53.02310 | -30.58153 | 36943 ft | 512 kts | 96° |
| 2026-04-25 18:40 | 53.01866 | -30.46356 | 36945 ft | 512 kts | 96° |
| 2026-04-25 18:41 | 53.01411 | -30.34572 | 36946 ft | 511 kts | 96° |
| 2026-04-25 18:41 | 53.00944 | -30.22787 | 36950 ft | 513 kts | 96° |
| 2026-04-25 18:42 | 53.00545 | -30.12954 | 36951 ft | 514 kts | 96° |
| 2026-04-25 18:42 | 53.00140 | -29.99179 | 36953 ft | 516 kts | 89° |
| 2026-04-25 18:43 | 53.00504 | -29.87280 | 36948 ft | 516 kts | 88° |
| 2026-04-25 18:43 | 53.00988 | -29.75386 | 36959 ft | 517 kts | 88° |
| 2026-04-25 18:44 | 53.01476 | -29.63552 | 36955 ft | 518 kts | 88° |
| 2026-04-25 18:44 | 53.01945 | -29.51615 | 36953 ft | 518 kts | 88° |
| 2026-04-25 18:45 | 53.02394 | -29.39661 | 36958 ft | 518 kts | 88° |
| 2026-04-25 18:45 | 53.02829 | -29.27711 | 36961 ft | 518 kts | 88° |
| 2026-04-25 18:46 | 53.03249 | -29.15836 | 36964 ft | 518 kts | 88° |
| 2026-04-25 18:46 | 53.03660 | -29.03868 | 36964 ft | 519 kts | 88° |
| 2026-04-25 18:47 | 53.04061 | -28.91893 | 36963 ft | 519 kts | 88° |
| 2026-04-25 18:47 | 53.04449 | -28.79919 | 36966 ft | 519 kts | 88° |
| 2026-04-25 18:48 | 53.04823 | -28.68017 | 36966 ft | 519 kts | 88° |
| 2026-04-25 18:48 | 53.05187 | -28.56037 | 36975 ft | 519 kts | 88° |
| 2026-04-25 18:49 | 53.05539 | -28.44036 | 36974 ft | 520 kts | 88° |
| 2026-04-25 18:49 | 53.05879 | -28.32046 | 36969 ft | 520 kts | 88° |
| 2026-04-25 18:50 | 53.06208 | -28.20044 | 36971 ft | 520 kts | 88° |
| 2026-04-25 18:50 | 53.06522 | -28.08118 | 36970 ft | 520 kts | 89° |
| 2026-04-25 18:51 | 53.06776 | -27.98143 | 36971 ft | 520 kts | 89° |
| 2026-04-25 18:51 | 53.07119 | -27.84094 | 36980 ft | 520 kts | 89° |
| 2026-04-25 18:52 | 53.07399 | -27.72075 | 36980 ft | 520 kts | 89° |
| 2026-04-25 18:52 | 53.07666 | -27.60133 | 36974 ft | 520 kts | 89° |
| 2026-04-25 18:53 | 53.07922 | -27.48104 | 36982 ft | 520 kts | 89° |
| 2026-04-25 18:53 | 53.08166 | -27.36079 | 36981 ft | 520 kts | 89° |
| 2026-04-25 18:54 | 53.08508 | -27.18121 | 36976 ft | 520 kts | 89° |
| 2026-04-25 18:55 | 53.08722 | -27.06092 | 36990 ft | 520 kts | 89° |
| 2026-04-25 18:55 | 53.08924 | -26.94061 | 36988 ft | 520 kts | 89° |
| 2026-04-25 18:56 | 53.09113 | -26.82034 | 36981 ft | 520 kts | 90° |
| 2026-04-25 18:56 | 53.09291 | -26.70002 | 36986 ft | 520 kts | 90° |
| 2026-04-25 18:57 | 53.09455 | -26.58054 | 36980 ft | 520 kts | 90° |
| 2026-04-25 18:57 | 53.09609 | -26.46027 | 36994 ft | 520 kts | 90° |
| 2026-04-25 18:58 | 53.09750 | -26.33995 | 36984 ft | 520 kts | 90° |
| 2026-04-25 18:58 | 53.09938 | -26.15947 | 36994 ft | 520 kts | 90° |
| 2026-04-25 18:59 | 53.10147 | -25.91969 | 36990 ft | 520 kts | 90° |
| 2026-04-25 19:00 | 53.10273 | -25.73909 | 36994 ft | 520 kts | 90° |
| 2026-04-25 19:01 | 53.10371 | -25.55838 | 36989 ft | 521 kts | 90° |
| 2026-04-25 19:01 | 53.10421 | -25.43869 | 36993 ft | 521 kts | 90° |
| 2026-04-25 19:02 | 53.10474 | -25.25795 | 36992 ft | 521 kts | 91° |
| 2026-04-25 19:03 | 53.10497 | -25.09756 | 36995 ft | 521 kts | 91° |
| 2026-04-25 19:03 | 53.10501 | -24.95756 | 37001 ft | 520 kts | 91° |
| 2026-04-25 19:04 | 53.10480 | -24.77698 | 36988 ft | 520 kts | 91° |
| 2026-04-25 19:05 | 53.10411 | -24.53625 | 37014 ft | 520 kts | 91° |
| 2026-04-25 19:06 | 53.10358 | -24.41593 | 36999 ft | 520 kts | 91° |
| 2026-04-25 19:06 | 53.10257 | -24.23626 | 37016 ft | 520 kts | 91° |
| 2026-04-25 19:07 | 53.10128 | -24.05591 | 37008 ft | 520 kts | 92° |
| 2026-04-25 19:08 | 53.09973 | -23.87652 | 37009 ft | 519 kts | 92° |
| 2026-04-25 19:09 | 53.09745 | -23.65692 | 37013 ft | 518 kts | 92° |
| 2026-04-25 19:10 | 53.09505 | -23.45793 | 37014 ft | 517 kts | 92° |
| 2026-04-25 19:10 | 53.09344 | -23.33832 | 37017 ft | 517 kts | 92° |
| 2026-04-25 19:11 | 53.09171 | -23.21866 | 37017 ft | 517 kts | 93° |
| 2026-04-25 19:11 | 53.08986 | -23.09896 | 37022 ft | 517 kts | 93° |
| 2026-04-25 19:12 | 53.08791 | -22.98015 | 37019 ft | 517 kts | 93° |
| 2026-04-25 19:12 | 53.08583 | -22.86052 | 37021 ft | 517 kts | 93° |
| 2026-04-25 19:13 | 53.08362 | -22.74092 | 37020 ft | 517 kts | 93° |
| 2026-04-25 19:13 | 53.08129 | -22.62132 | 37015 ft | 517 kts | 94° |
| 2026-04-25 19:14 | 53.07885 | -22.50198 | 37029 ft | 516 kts | 94° |
| 2026-04-25 19:14 | 53.07631 | -22.38348 | 37023 ft | 516 kts | 94° |
| 2026-04-25 19:15 | 53.07363 | -22.26410 | 37026 ft | 516 kts | 94° |
| 2026-04-25 19:15 | 53.07083 | -22.14478 | 37032 ft | 516 kts | 94° |
| 2026-04-25 19:16 | 53.06792 | -22.02547 | 37032 ft | 516 kts | 94° |
| 2026-04-25 19:16 | 53.06490 | -21.90703 | 37030 ft | 516 kts | 94° |
| 2026-04-25 19:17 | 53.06175 | -21.78782 | 37038 ft | 516 kts | 94° |
| 2026-04-25 19:17 | 53.05847 | -21.66856 | 37037 ft | 516 kts | 95° |
| 2026-04-25 19:18 | 53.05508 | -21.54932 | 37039 ft | 516 kts | 95° |
| 2026-04-25 19:18 | 53.05159 | -21.43093 | 37032 ft | 516 kts | 95° |
| 2026-04-25 19:19 | 53.04797 | -21.31209 | 37046 ft | 514 kts | 95° |
| 2026-04-25 19:19 | 53.04423 | -21.19339 | 37050 ft | 514 kts | 95° |
| 2026-04-25 19:20 | 53.04039 | -21.07491 | 37050 ft | 514 kts | 95° |
| 2026-04-25 19:20 | 53.03644 | -20.95710 | 37050 ft | 514 kts | 95° |
| 2026-04-25 19:21 | 53.03236 | -20.83866 | 37050 ft | 514 kts | 95° |
| 2026-04-25 19:21 | 53.02602 | -20.66093 | 37064 ft | 514 kts | 95° |
| 2026-04-25 19:22 | 53.02164 | -20.54252 | 37061 ft | 513 kts | 96° |
| 2026-04-25 19:23 | 53.01489 | -20.36578 | 37060 ft | 513 kts | 96° |
| 2026-04-25 19:23 | 53.00784 | -20.18840 | 37058 ft | 513 kts | 96° |
| 2026-04-25 19:24 | 53.00302 | -20.07045 | 37069 ft | 511 kts | 96° |
| 2026-04-25 19:25 | 53.00314 | -19.83485 | 37072 ft | 513 kts | 90° |
| 2026-04-25 19:25 | 53.00552 | -19.71647 | 37072 ft | 513 kts | 90° |
| 2026-04-25 19:26 | 53.00780 | -19.59801 | 37077 ft | 513 kts | 90° |
| 2026-04-25 19:26 | 53.00987 | -19.47970 | 37077 ft | 513 kts | 90° |
| 2026-04-25 19:27 | 53.01147 | -19.38123 | 37078 ft | 513 kts | 90° |
| 2026-04-25 19:27 | 53.01355 | -19.24360 | 37078 ft | 513 kts | 90° |
| 2026-04-25 19:28 | 53.01523 | -19.12508 | 37081 ft | 513 kts | 91° |
| 2026-04-25 19:28 | 53.01678 | -19.00669 | 37085 ft | 513 kts | 91° |
| 2026-04-25 19:29 | 53.01822 | -18.88830 | 37085 ft | 513 kts | 91° |
| 2026-04-25 19:29 | 53.01953 | -18.77079 | 37089 ft | 513 kts | 91° |
| 2026-04-25 19:30 | 53.02073 | -18.65239 | 37079 ft | 512 kts | 91° |
| 2026-04-25 19:30 | 53.02182 | -18.53417 | 37095 ft | 512 kts | 91° |
| 2026-04-25 19:31 | 53.02279 | -18.41571 | 37091 ft | 513 kts | 92° |
| 2026-04-25 19:31 | 53.02363 | -18.29813 | 37099 ft | 513 kts | 92° |
| 2026-04-25 19:32 | 53.02436 | -18.17973 | 37099 ft | 513 kts | 92° |
| 2026-04-25 19:32 | 53.02488 | -18.08134 | 37105 ft | 513 kts | 92° |
| 2026-04-25 19:33 | 53.02548 | -17.94284 | 37108 ft | 513 kts | 92° |
| 2026-04-25 19:33 | 53.02586 | -17.82507 | 37106 ft | 513 kts | 92° |
| 2026-04-25 19:34 | 53.02612 | -17.70652 | 37110 ft | 513 kts | 92° |
| 2026-04-25 19:34 | 53.02627 | -17.58802 | 37109 ft | 513 kts | 92° |
| 2026-04-25 19:35 | 53.02630 | -17.46945 | 37116 ft | 514 kts | 93° |
| 2026-04-25 19:35 | 53.02621 | -17.35084 | 37120 ft | 514 kts | 93° |
| 2026-04-25 19:36 | 53.02600 | -17.23291 | 37127 ft | 514 kts | 93° |
| 2026-04-25 19:36 | 53.02568 | -17.11438 | 37124 ft | 513 kts | 93° |
| 2026-04-25 19:37 | 53.02524 | -16.99572 | 37116 ft | 514 kts | 93° |
| 2026-04-25 19:37 | 53.02468 | -16.87728 | 37133 ft | 512 kts | 94° |
| 2026-04-25 19:38 | 53.02401 | -16.75989 | 37132 ft | 511 kts | 94° |
| 2026-04-25 19:38 | 53.02322 | -16.64177 | 37126 ft | 511 kts | 94° |
| 2026-04-25 19:39 | 53.02231 | -16.52362 | 37129 ft | 511 kts | 94° |
| 2026-04-25 19:39 | 53.02128 | -16.40550 | 37133 ft | 511 kts | 94° |
| 2026-04-25 19:40 | 53.02014 | -16.28741 | 37136 ft | 511 kts | 94° |
| 2026-04-25 19:40 | 53.01889 | -16.17022 | 37141 ft | 511 kts | 94° |
| 2026-04-25 19:41 | 53.01751 | -16.05216 | 37144 ft | 511 kts | 94° |
| 2026-04-25 19:41 | 53.01654 | -15.97400 | 37146 ft | 511 kts | 94° |
| 2026-04-25 19:42 | 53.01441 | -15.81619 | 37150 ft | 511 kts | 95° |
| 2026-04-25 19:42 | 53.01270 | -15.69898 | 37152 ft | 511 kts | 95° |
| 2026-04-25 19:43 | 53.01086 | -15.58103 | 37150 ft | 511 kts | 95° |
| 2026-04-25 19:43 | 53.00890 | -15.46313 | 37151 ft | 511 kts | 95° |
| 2026-04-25 19:44 | 53.00683 | -15.34526 | 37151 ft | 511 kts | 95° |
| 2026-04-25 19:44 | 53.00464 | -15.22745 | 37152 ft | 510 kts | 95° |
| 2026-04-25 19:45 | 53.00235 | -15.11052 | 37156 ft | 510 kts | 95° |
| 2026-04-25 19:45 | 52.99994 | -14.99286 | 37159 ft | 510 kts | 95° |
| 2026-04-25 19:46 | 52.99937 | -14.87489 | 37162 ft | 511 kts | 92° |
| 2026-04-25 19:46 | 53.00032 | -14.75688 | 37164 ft | 511 kts | 92° |
| 2026-04-25 19:47 | 53.00098 | -14.63962 | 37165 ft | 511 kts | 92° |
| 2026-04-25 19:47 | 53.00118 | -14.52156 | 37176 ft | 511 kts | 93° |
| 2026-04-25 19:48 | 53.00113 | -14.40358 | 37174 ft | 511 kts | 93° |
| 2026-04-25 19:48 | 53.00095 | -14.28562 | 37174 ft | 511 kts | 93° |
| 2026-04-25 19:49 | 53.00078 | -14.20745 | 37169 ft | 511 kts | 93° |
| 2026-04-25 19:49 | 53.00029 | -14.05035 | 37184 ft | 511 kts | 93° |
| 2026-04-25 19:50 | 52.98991 | -13.87517 | 37181 ft | 508 kts | 101° |
| 2026-04-25 19:51 | 52.98009 | -13.75922 | 37175 ft | 508 kts | 101° |
| 2026-04-25 19:51 | 52.97005 | -13.64411 | 37184 ft | 508 kts | 101° |
| 2026-04-25 19:52 | 52.95992 | -13.52819 | 37180 ft | 507 kts | 101° |
| 2026-04-25 19:52 | 52.94977 | -13.41259 | 37190 ft | 507 kts | 101° |
| 2026-04-25 19:53 | 52.93953 | -13.29702 | 37190 ft | 506 kts | 101° |
| 2026-04-25 19:53 | 52.92924 | -13.18230 | 37192 ft | 507 kts | 101° |
| 2026-04-25 19:54 | 52.91877 | -13.06678 | 37192 ft | 507 kts | 101° |
| 2026-04-25 19:54 | 52.90818 | -12.95130 | 37192 ft | 507 kts | 102° |
| 2026-04-25 19:55 | 52.89748 | -12.83586 | 37192 ft | 507 kts | 102° |
| 2026-04-25 19:55 | 52.88674 | -12.72127 | 37184 ft | 507 kts | 102° |
| 2026-04-25 19:56 | 52.87581 | -12.60601 | 37199 ft | 507 kts | 102° |